<?xml version="1.0" encoding="UTF-8" standalone="no" ?>
<gpx xmlns="http://www.topografix.com/GPX/1/1" xmlns:xsi="http://www.w3.org/2001/XMLSchema-instance" xsi:schemaLocation="http://www.topografix.com/GPX/1/1 http://www.topografix.com/GPX/1/1/gpx.xsd" version="1.1" creator="VisuGPX - https://www.visugpx.com">
  <metadata>
    <name>UT53</name>
  </metadata>
  <trk>
    <name><![CDATA[UT53 Étape 2]]></name>
    <extensions>
      <line xmlns="http://www.topografix.com/GPX/gpx_style/0/2">
        <color>00FF00</color>
        <width>4</width>
      </line>
    </extensions>
    <trkseg>
      <trkpt lat="49.03575" lon="7.69082">
        <ele>242.42751426538</ele>
        <time>2021-03-30T12:00:07.000Z</time>
      </trkpt>
      <trkpt lat="49.03575" lon="7.69082">
        <ele>242.42751426538</ele>
        <time>2021-03-30T12:00:07.000Z</time>
      </trkpt>
      <trkpt lat="49.03575" lon="7.69086">
        <ele>242.47371365852</ele>
        <time>2021-03-30T12:00:07.001Z</time>
      </trkpt>
      <trkpt lat="49.03546" lon="7.69088">
        <ele>242.2783901722</ele>
        <time>2021-03-30T12:00:07.012Z</time>
      </trkpt>
      <trkpt lat="49.03507" lon="7.69087">
        <ele>242.26647297479</ele>
        <time>2021-03-30T12:00:07.036Z</time>
      </trkpt>
      <trkpt lat="49.03501" lon="7.69087">
        <ele>242.37429779448</ele>
        <time>2021-03-30T12:00:07.062Z</time>
      </trkpt>
      <trkpt lat="49.03497" lon="7.69087">
        <ele>242.5813903792</ele>
        <time>2021-03-30T12:00:07.089Z</time>
      </trkpt>
      <trkpt lat="49.03489" lon="7.69083">
        <ele>242.90380185683</ele>
        <time>2021-03-30T12:00:07.119Z</time>
      </trkpt>
      <trkpt lat="49.03485" lon="7.69068">
        <ele>243.31381857614</ele>
        <time>2021-03-30T12:00:07.152Z</time>
      </trkpt>
      <trkpt lat="49.03481" lon="7.6905">
        <ele>243.79337404391</ele>
        <time>2021-03-30T12:00:07.189Z</time>
      </trkpt>
      <trkpt lat="49.03476" lon="7.69032">
        <ele>244.31509947544</ele>
        <time>2021-03-30T12:00:07.231Z</time>
      </trkpt>
      <trkpt lat="49.03468" lon="7.69017">
        <ele>244.94091858836</ele>
        <time>2021-03-30T12:00:07.277Z</time>
      </trkpt>
      <trkpt lat="49.03459" lon="7.69006">
        <ele>245.67065635332</ele>
        <time>2021-03-30T12:00:07.327Z</time>
      </trkpt>
      <trkpt lat="49.03439" lon="7.68994">
        <ele>246.68659220706</ele>
        <time>2021-03-30T12:00:07.384Z</time>
      </trkpt>
      <trkpt lat="49.03429" lon="7.68988">
        <ele>247.70052219898</ele>
        <time>2021-03-30T12:00:07.445Z</time>
      </trkpt>
      <trkpt lat="49.03408" lon="7.68974">
        <ele>248.76757747837</ele>
        <time>2021-03-30T12:00:07.513Z</time>
      </trkpt>
      <trkpt lat="49.0338" lon="7.68951">
        <ele>249.89382539456</ele>
        <time>2021-03-30T12:00:07.592Z</time>
      </trkpt>
      <trkpt lat="49.03367" lon="7.68943">
        <ele>251.08270394397</ele>
        <time>2021-03-30T12:00:07.675Z</time>
      </trkpt>
      <trkpt lat="49.03335" lon="7.68915">
        <ele>252.55611046543</ele>
        <time>2021-03-30T12:00:07.771Z</time>
      </trkpt>
      <trkpt lat="49.0331" lon="7.68891">
        <ele>253.82426911965</ele>
        <time>2021-03-30T12:00:07.877Z</time>
      </trkpt>
      <trkpt lat="49.03293" lon="7.68873">
        <ele>254.92757669153</ele>
        <time>2021-03-30T12:00:07.990Z</time>
      </trkpt>
      <trkpt lat="49.03273" lon="7.68856">
        <ele>256.05559823945</ele>
        <time>2021-03-30T12:00:08.110Z</time>
      </trkpt>
      <trkpt lat="49.03255" lon="7.68841">
        <ele>257.23567025888</ele>
        <time>2021-03-30T12:00:08.237Z</time>
      </trkpt>
      <trkpt lat="49.0323" lon="7.68825">
        <ele>258.49829796632</ele>
        <time>2021-03-30T12:00:08.373Z</time>
      </trkpt>
      <trkpt lat="49.03203" lon="7.68803">
        <ele>259.76325271063</ele>
        <time>2021-03-30T12:00:08.519Z</time>
      </trkpt>
      <trkpt lat="49.03176" lon="7.68781">
        <ele>260.94301786775</ele>
        <time>2021-03-30T12:00:08.676Z</time>
      </trkpt>
      <trkpt lat="49.03159" lon="7.68767">
        <ele>261.99363413243</ele>
        <time>2021-03-30T12:00:08.839Z</time>
      </trkpt>
      <trkpt lat="49.03143" lon="7.68756">
        <ele>263.03986454624</ele>
        <time>2021-03-30T12:00:09.008Z</time>
      </trkpt>
      <trkpt lat="49.03127" lon="7.6875">
        <ele>264.11446994484</ele>
        <time>2021-03-30T12:00:09.182Z</time>
      </trkpt>
      <trkpt lat="49.03113" lon="7.68748">
        <ele>265.30876550995</ele>
        <time>2021-03-30T12:00:09.361Z</time>
      </trkpt>
      <trkpt lat="49.031" lon="7.68746">
        <ele>266.54793157551</ele>
        <time>2021-03-30T12:00:09.544Z</time>
      </trkpt>
      <trkpt lat="49.03088" lon="7.68741">
        <ele>267.76061160385</ele>
        <time>2021-03-30T12:00:09.732Z</time>
      </trkpt>
      <trkpt lat="49.03071" lon="7.68737">
        <ele>269.04003743767</ele>
        <time>2021-03-30T12:00:09.925Z</time>
      </trkpt>
      <trkpt lat="49.03054" lon="7.68737">
        <ele>270.42595433362</ele>
        <time>2021-03-30T12:00:10.124Z</time>
      </trkpt>
      <trkpt lat="49.03038" lon="7.68735">
        <ele>271.84072347024</ele>
        <time>2021-03-30T12:00:10.328Z</time>
      </trkpt>
      <trkpt lat="49.0302" lon="7.68729">
        <ele>273.38343152742</ele>
        <time>2021-03-30T12:00:10.538Z</time>
      </trkpt>
      <trkpt lat="49.03012" lon="7.68725">
        <ele>274.82724301365</ele>
        <time>2021-03-30T12:00:10.751Z</time>
      </trkpt>
      <trkpt lat="49.03006" lon="7.68722">
        <ele>276.22704981622</ele>
        <time>2021-03-30T12:00:10.966Z</time>
      </trkpt>
      <trkpt lat="49.02995" lon="7.68716">
        <ele>277.6591838715</ele>
        <time>2021-03-30T12:00:11.185Z</time>
      </trkpt>
      <trkpt lat="49.02983" lon="7.68704">
        <ele>279.11171333039</ele>
        <time>2021-03-30T12:00:11.409Z</time>
      </trkpt>
      <trkpt lat="49.02958" lon="7.68676">
        <ele>280.64226944788</ele>
        <time>2021-03-30T12:00:11.643Z</time>
      </trkpt>
      <trkpt lat="49.0294" lon="7.68653">
        <ele>282.26347610641</ele>
        <time>2021-03-30T12:00:11.885Z</time>
      </trkpt>
      <trkpt lat="49.02914" lon="7.68621">
        <ele>284.09419909302</ele>
        <time>2021-03-30T12:00:12.138Z</time>
      </trkpt>
      <trkpt lat="49.02906" lon="7.6861">
        <ele>285.78394964093</ele>
        <time>2021-03-30T12:00:12.395Z</time>
      </trkpt>
      <trkpt lat="49.0287" lon="7.68572">
        <ele>287.41153631779</ele>
        <time>2021-03-30T12:00:12.667Z</time>
      </trkpt>
      <trkpt lat="49.0284" lon="7.68532">
        <ele>289.15272212666</ele>
        <time>2021-03-30T12:00:12.952Z</time>
      </trkpt>
      <trkpt lat="49.02795" lon="7.68471">
        <ele>291.24358751963</ele>
        <time>2021-03-30T12:00:13.257Z</time>
      </trkpt>
      <trkpt lat="49.02748" lon="7.68405">
        <ele>293.18899345346</ele>
        <time>2021-03-30T12:00:13.583Z</time>
      </trkpt>
      <trkpt lat="49.02714" lon="7.68348">
        <ele>295.00159658104</ele>
        <time>2021-03-30T12:00:13.926Z</time>
      </trkpt>
      <trkpt lat="49.02692" lon="7.68312">
        <ele>296.62982786344</ele>
        <time>2021-03-30T12:00:14.280Z</time>
      </trkpt>
      <trkpt lat="49.02686" lon="7.68302">
        <ele>298.30191941496</ele>
        <time>2021-03-30T12:00:14.637Z</time>
      </trkpt>
      <trkpt lat="49.02663" lon="7.6832">
        <ele>300.19119275952</ele>
        <time>2021-03-30T12:00:15.003Z</time>
      </trkpt>
      <trkpt lat="49.02656" lon="7.68325">
        <ele>302.08727254317</ele>
        <time>2021-03-30T12:00:15.371Z</time>
      </trkpt>
      <trkpt lat="49.02659" lon="7.68315">
        <ele>304.08861745793</ele>
        <time>2021-03-30T12:00:15.742Z</time>
      </trkpt>
      <trkpt lat="49.02662" lon="7.68297">
        <ele>306.1063539281</ele>
        <time>2021-03-30T12:00:16.117Z</time>
      </trkpt>
      <trkpt lat="49.02658" lon="7.68274">
        <ele>308.16851103738</ele>
        <time>2021-03-30T12:00:16.497Z</time>
      </trkpt>
      <trkpt lat="49.02631" lon="7.68253">
        <ele>310.56463147101</ele>
        <time>2021-03-30T12:00:16.887Z</time>
      </trkpt>
      <trkpt lat="49.02593" lon="7.68228">
        <ele>313.7425900191</ele>
        <time>2021-03-30T12:00:17.291Z</time>
      </trkpt>
      <trkpt lat="49.02593" lon="7.68228">
        <ele>316.56697066403</ele>
        <time>2021-03-30T12:00:17.695Z</time>
      </trkpt>
      <trkpt lat="49.02558" lon="7.68198">
        <ele>320.11765347656</ele>
        <time>2021-03-30T12:00:18.112Z</time>
      </trkpt>
      <trkpt lat="49.02533" lon="7.68174">
        <ele>323.67001312898</ele>
        <time>2021-03-30T12:00:18.539Z</time>
      </trkpt>
      <trkpt lat="49.02512" lon="7.68151">
        <ele>327.41242454941</ele>
        <time>2021-03-30T12:00:18.975Z</time>
      </trkpt>
      <trkpt lat="49.02494" lon="7.68127">
        <ele>331.16787834353</ele>
        <time>2021-03-30T12:00:19.419Z</time>
      </trkpt>
      <trkpt lat="49.02477" lon="7.681">
        <ele>335.04404314069</ele>
        <time>2021-03-30T12:00:19.871Z</time>
      </trkpt>
      <trkpt lat="49.02467" lon="7.68072">
        <ele>338.98139615083</ele>
        <time>2021-03-30T12:00:20.330Z</time>
      </trkpt>
      <trkpt lat="49.02464" lon="7.68064">
        <ele>342.83090539947</ele>
        <time>2021-03-30T12:00:20.791Z</time>
      </trkpt>
      <trkpt lat="49.02453" lon="7.6803">
        <ele>346.79875000304</ele>
        <time>2021-03-30T12:00:21.260Z</time>
      </trkpt>
      <trkpt lat="49.02438" lon="7.67993">
        <ele>350.67103097304</ele>
        <time>2021-03-30T12:00:21.739Z</time>
      </trkpt>
      <trkpt lat="49.0243" lon="7.67959">
        <ele>354.5478166368</ele>
        <time>2021-03-30T12:00:22.226Z</time>
      </trkpt>
      <trkpt lat="49.02417" lon="7.67928">
        <ele>358.60198959045</ele>
        <time>2021-03-30T12:00:22.721Z</time>
      </trkpt>
      <trkpt lat="49.02387" lon="7.67872">
        <ele>363.06790643947</ele>
        <time>2021-03-30T12:00:23.232Z</time>
      </trkpt>
      <trkpt lat="49.02382" lon="7.67862">
        <ele>366.93284120357</ele>
        <time>2021-03-30T12:00:23.745Z</time>
      </trkpt>
      <trkpt lat="49.02377" lon="7.67849">
        <ele>370.68698582341</ele>
        <time>2021-03-30T12:00:24.262Z</time>
      </trkpt>
      <trkpt lat="49.02367" lon="7.67823">
        <ele>374.41722941505</ele>
        <time>2021-03-30T12:00:24.785Z</time>
      </trkpt>
      <trkpt lat="49.02347" lon="7.67776">
        <ele>377.97683910216</ele>
        <time>2021-03-30T12:00:25.321Z</time>
      </trkpt>
      <trkpt lat="49.02324" lon="7.67726">
        <ele>381.23903789076</ele>
        <time>2021-03-30T12:00:25.870Z</time>
      </trkpt>
      <trkpt lat="49.02303" lon="7.67683">
        <ele>384.25489346992</ele>
        <time>2021-03-30T12:00:26.431Z</time>
      </trkpt>
      <trkpt lat="49.02303" lon="7.67683">
        <ele>386.91654267593</ele>
        <time>2021-03-30T12:00:26.992Z</time>
      </trkpt>
      <trkpt lat="49.02293" lon="7.67676">
        <ele>389.36200981936</ele>
        <time>2021-03-30T12:00:27.556Z</time>
      </trkpt>
      <trkpt lat="49.02293" lon="7.67678">
        <ele>391.51422729061</ele>
        <time>2021-03-30T12:00:28.121Z</time>
      </trkpt>
      <trkpt lat="49.02272" lon="7.67728">
        <ele>393.63957529247</ele>
        <time>2021-03-30T12:00:28.699Z</time>
      </trkpt>
      <trkpt lat="49.02255" lon="7.67761">
        <ele>395.63990130437</ele>
        <time>2021-03-30T12:00:29.286Z</time>
      </trkpt>
      <trkpt lat="49.02232" lon="7.67798">
        <ele>397.222182326</ele>
        <time>2021-03-30T12:00:29.884Z</time>
      </trkpt>
      <trkpt lat="49.02213" lon="7.67825">
        <ele>398.25563211791</ele>
        <time>2021-03-30T12:00:30.491Z</time>
      </trkpt>
      <trkpt lat="49.02192" lon="7.67852">
        <ele>399.12466329497</ele>
        <time>2021-03-30T12:00:31.107Z</time>
      </trkpt>
      <trkpt lat="49.02185" lon="7.67864">
        <ele>399.66929913989</ele>
        <time>2021-03-30T12:00:31.726Z</time>
      </trkpt>
      <trkpt lat="49.02168" lon="7.67889">
        <ele>400.07328754387</ele>
        <time>2021-03-30T12:00:32.353Z</time>
      </trkpt>
      <trkpt lat="49.02159" lon="7.67915">
        <ele>400.10773659887</ele>
        <time>2021-03-30T12:00:32.987Z</time>
      </trkpt>
      <trkpt lat="49.02155" lon="7.67941">
        <ele>399.93664875381</ele>
        <time>2021-03-30T12:00:33.627Z</time>
      </trkpt>
      <trkpt lat="49.02154" lon="7.67971">
        <ele>399.46906018501</ele>
        <time>2021-03-30T12:00:34.273Z</time>
      </trkpt>
      <trkpt lat="49.02159" lon="7.68008">
        <ele>398.89610368695</ele>
        <time>2021-03-30T12:00:34.928Z</time>
      </trkpt>
      <trkpt lat="49.02169" lon="7.68049">
        <ele>398.02039422624</ele>
        <time>2021-03-30T12:00:35.592Z</time>
      </trkpt>
      <trkpt lat="49.02181" lon="7.68098">
        <ele>396.86496413288</ele>
        <time>2021-03-30T12:00:36.268Z</time>
      </trkpt>
      <trkpt lat="49.02187" lon="7.68132">
        <ele>395.47861207662</ele>
        <time>2021-03-30T12:00:36.951Z</time>
      </trkpt>
      <trkpt lat="49.02188" lon="7.68162">
        <ele>393.81531917883</ele>
        <time>2021-03-30T12:00:37.641Z</time>
      </trkpt>
      <trkpt lat="49.02185" lon="7.68187">
        <ele>391.86971996672</ele>
        <time>2021-03-30T12:00:38.337Z</time>
      </trkpt>
      <trkpt lat="49.02178" lon="7.68202">
        <ele>389.8306696796</ele>
        <time>2021-03-30T12:00:39.036Z</time>
      </trkpt>
      <trkpt lat="49.02177" lon="7.68207">
        <ele>387.89717435809</ele>
        <time>2021-03-30T12:00:39.737Z</time>
      </trkpt>
      <trkpt lat="49.02165" lon="7.68217">
        <ele>385.73120107724</ele>
        <time>2021-03-30T12:00:40.442Z</time>
      </trkpt>
      <trkpt lat="49.02161" lon="7.68231">
        <ele>383.69480860247</ele>
        <time>2021-03-30T12:00:41.150Z</time>
      </trkpt>
      <trkpt lat="49.02151" lon="7.68234">
        <ele>381.67915829825</ele>
        <time>2021-03-30T12:00:41.862Z</time>
      </trkpt>
      <trkpt lat="49.02138" lon="7.68231">
        <ele>379.6991248216</ele>
        <time>2021-03-30T12:00:42.578Z</time>
      </trkpt>
      <trkpt lat="49.02119" lon="7.68226">
        <ele>377.75911492072</ele>
        <time>2021-03-30T12:00:43.301Z</time>
      </trkpt>
      <trkpt lat="49.02102" lon="7.68224">
        <ele>375.94985492054</ele>
        <time>2021-03-30T12:00:44.030Z</time>
      </trkpt>
      <trkpt lat="49.02089" lon="7.68223">
        <ele>374.29871810105</ele>
        <time>2021-03-30T12:00:44.763Z</time>
      </trkpt>
      <trkpt lat="49.02079" lon="7.68226">
        <ele>372.82818979409</ele>
        <time>2021-03-30T12:00:45.499Z</time>
      </trkpt>
      <trkpt lat="49.02069" lon="7.68234">
        <ele>371.53654361094</ele>
        <time>2021-03-30T12:00:46.239Z</time>
      </trkpt>
      <trkpt lat="49.02072" lon="7.68248">
        <ele>370.49556469193</ele>
        <time>2021-03-30T12:00:46.982Z</time>
      </trkpt>
      <trkpt lat="49.02071" lon="7.68265">
        <ele>369.64430781805</ele>
        <time>2021-03-30T12:00:47.729Z</time>
      </trkpt>
      <trkpt lat="49.02068" lon="7.68282">
        <ele>368.98063915339</ele>
        <time>2021-03-30T12:00:48.480Z</time>
      </trkpt>
      <trkpt lat="49.02057" lon="7.68268">
        <ele>368.45080406091</ele>
        <time>2021-03-30T12:00:49.236Z</time>
      </trkpt>
      <trkpt lat="49.02047" lon="7.68255">
        <ele>368.12812690087</ele>
        <time>2021-03-30T12:00:49.996Z</time>
      </trkpt>
      <trkpt lat="49.02028" lon="7.68231">
        <ele>368.15784256708</ele>
        <time>2021-03-30T12:00:50.764Z</time>
      </trkpt>
      <trkpt lat="49.02005" lon="7.68206">
        <ele>368.42191842784</ele>
        <time>2021-03-30T12:00:51.542Z</time>
      </trkpt>
      <trkpt lat="49.0199" lon="7.68191">
        <ele>368.8460703184</ele>
        <time>2021-03-30T12:00:52.326Z</time>
      </trkpt>
      <trkpt lat="49.01966" lon="7.68176">
        <ele>369.42626817011</ele>
        <time>2021-03-30T12:00:53.118Z</time>
      </trkpt>
      <trkpt lat="49.01938" lon="7.68164">
        <ele>370.24075621532</ele>
        <time>2021-03-30T12:00:53.920Z</time>
      </trkpt>
      <trkpt lat="49.0192" lon="7.68157">
        <ele>371.24641948692</ele>
        <time>2021-03-30T12:00:54.728Z</time>
      </trkpt>
      <trkpt lat="49.01912" lon="7.68157">
        <ele>372.36819291353</ele>
        <time>2021-03-30T12:00:55.539Z</time>
      </trkpt>
      <trkpt lat="49.01903" lon="7.6816">
        <ele>373.62379222595</ele>
        <time>2021-03-30T12:00:56.353Z</time>
      </trkpt>
      <trkpt lat="49.01895" lon="7.68163">
        <ele>375.11323079569</ele>
        <time>2021-03-30T12:00:57.170Z</time>
      </trkpt>
      <trkpt lat="49.01878" lon="7.6817">
        <ele>376.8256817633</ele>
        <time>2021-03-30T12:00:57.993Z</time>
      </trkpt>
      <trkpt lat="49.01834" lon="7.68178">
        <ele>378.93386979711</ele>
        <time>2021-03-30T12:00:58.830Z</time>
      </trkpt>
      <trkpt lat="49.01792" lon="7.6818">
        <ele>381.13426292119</ele>
        <time>2021-03-30T12:00:59.681Z</time>
      </trkpt>
      <trkpt lat="49.01765" lon="7.68183">
        <ele>383.46159742501</ele>
        <time>2021-03-30T12:01:00.541Z</time>
      </trkpt>
      <trkpt lat="49.01736" lon="7.68193">
        <ele>385.7873101071</ele>
        <time>2021-03-30T12:01:01.411Z</time>
      </trkpt>
      <trkpt lat="49.01715" lon="7.68204">
        <ele>387.94724928514</ele>
        <time>2021-03-30T12:01:02.289Z</time>
      </trkpt>
      <trkpt lat="49.01681" lon="7.68222">
        <ele>390.31162201514</ele>
        <time>2021-03-30T12:01:03.179Z</time>
      </trkpt>
      <trkpt lat="49.01671" lon="7.68232">
        <ele>392.58479802868</ele>
        <time>2021-03-30T12:01:04.073Z</time>
      </trkpt>
      <trkpt lat="49.01666" lon="7.68241">
        <ele>394.87262569193</ele>
        <time>2021-03-30T12:01:04.969Z</time>
      </trkpt>
      <trkpt lat="49.01662" lon="7.68248">
        <ele>397.31780606515</ele>
        <time>2021-03-30T12:01:05.867Z</time>
      </trkpt>
      <trkpt lat="49.01655" lon="7.68257">
        <ele>399.90004690321</ele>
        <time>2021-03-30T12:01:06.768Z</time>
      </trkpt>
      <trkpt lat="49.01644" lon="7.68267">
        <ele>402.53772997169</ele>
        <time>2021-03-30T12:01:07.674Z</time>
      </trkpt>
      <trkpt lat="49.0161" lon="7.6829">
        <ele>405.52525211465</ele>
        <time>2021-03-30T12:01:08.592Z</time>
      </trkpt>
      <trkpt lat="49.01582" lon="7.683">
        <ele>408.55424516145</ele>
        <time>2021-03-30T12:01:09.520Z</time>
      </trkpt>
      <trkpt lat="49.01582" lon="7.683">
        <ele>414.70213657021</ele>
        <time>2021-03-30T12:01:10.448Z</time>
      </trkpt>
      <trkpt lat="49.01555" lon="7.6831">
        <ele>417.90928401911</ele>
        <time>2021-03-30T12:01:11.385Z</time>
      </trkpt>
      <trkpt lat="49.01547" lon="7.68312">
        <ele>421.39616647974</ele>
        <time>2021-03-30T12:01:12.325Z</time>
      </trkpt>
      <trkpt lat="49.01525" lon="7.68315">
        <ele>425.19761104849</ele>
        <time>2021-03-30T12:01:13.272Z</time>
      </trkpt>
      <trkpt lat="49.01489" lon="7.68309">
        <ele>429.32867311071</ele>
        <time>2021-03-30T12:01:14.231Z</time>
      </trkpt>
      <trkpt lat="49.01458" lon="7.683">
        <ele>433.61968333751</ele>
        <time>2021-03-30T12:01:15.201Z</time>
      </trkpt>
      <trkpt lat="49.01406" lon="7.68279">
        <ele>438.06605482656</ele>
        <time>2021-03-30T12:01:16.189Z</time>
      </trkpt>
      <trkpt lat="49.0138" lon="7.68274">
        <ele>442.54445689927</ele>
        <time>2021-03-30T12:01:17.185Z</time>
      </trkpt>
      <trkpt lat="49.01379" lon="7.68305">
        <ele>447.138242068</ele>
        <time>2021-03-30T12:01:18.188Z</time>
      </trkpt>
      <trkpt lat="49.0138" lon="7.68305">
        <ele>451.8909175659</ele>
        <time>2021-03-30T12:01:19.192Z</time>
      </trkpt>
      <trkpt lat="49.0137" lon="7.68339">
        <ele>456.8336380846</ele>
        <time>2021-03-30T12:01:20.204Z</time>
      </trkpt>
      <trkpt lat="49.01349" lon="7.68391">
        <ele>462.43284611946</ele>
        <time>2021-03-30T12:01:21.229Z</time>
      </trkpt>
      <trkpt lat="49.01336" lon="7.68442">
        <ele>468.32018573713</ele>
        <time>2021-03-30T12:01:22.266Z</time>
      </trkpt>
      <trkpt lat="49.01325" lon="7.68487">
        <ele>474.38734267896</ele>
        <time>2021-03-30T12:01:23.314Z</time>
      </trkpt>
      <trkpt lat="49.01314" lon="7.68554">
        <ele>480.22124450769</ele>
        <time>2021-03-30T12:01:24.377Z</time>
      </trkpt>
      <trkpt lat="49.01302" lon="7.68522">
        <ele>485.7680312343</ele>
        <time>2021-03-30T12:01:25.448Z</time>
      </trkpt>
      <trkpt lat="49.013" lon="7.68466">
        <ele>490.75349492363</ele>
        <time>2021-03-30T12:01:26.531Z</time>
      </trkpt>
      <trkpt lat="49.01284" lon="7.68389">
        <ele>495.69908406144</ele>
        <time>2021-03-30T12:01:27.632Z</time>
      </trkpt>
      <trkpt lat="49.01277" lon="7.68436">
        <ele>501.17546872403</ele>
        <time>2021-03-30T12:01:28.744Z</time>
      </trkpt>
      <trkpt lat="49.01257" lon="7.68477">
        <ele>506.48800813117</ele>
        <time>2021-03-30T12:01:29.867Z</time>
      </trkpt>
      <trkpt lat="49.01257" lon="7.68467">
        <ele>510.95948821614</ele>
        <time>2021-03-30T12:01:30.992Z</time>
      </trkpt>
      <trkpt lat="49.01244" lon="7.68474">
        <ele>515.37024617841</ele>
        <time>2021-03-30T12:01:32.122Z</time>
      </trkpt>
      <trkpt lat="49.0123" lon="7.68486">
        <ele>519.49970342319</ele>
        <time>2021-03-30T12:01:33.257Z</time>
      </trkpt>
      <trkpt lat="49.01223" lon="7.68502">
        <ele>523.2627373642</ele>
        <time>2021-03-30T12:01:34.396Z</time>
      </trkpt>
      <trkpt lat="49.01219" lon="7.68527">
        <ele>526.66775154271</ele>
        <time>2021-03-30T12:01:35.541Z</time>
      </trkpt>
      <trkpt lat="49.01209" lon="7.68539">
        <ele>529.72258688762</ele>
        <time>2021-03-30T12:01:36.690Z</time>
      </trkpt>
      <trkpt lat="49.01192" lon="7.68549">
        <ele>532.40207421167</ele>
        <time>2021-03-30T12:01:37.845Z</time>
      </trkpt>
      <trkpt lat="49.01156" lon="7.6856">
        <ele>534.63313588407</ele>
        <time>2021-03-30T12:01:39.012Z</time>
      </trkpt>
      <trkpt lat="49.0115" lon="7.68544">
        <ele>536.50975716098</ele>
        <time>2021-03-30T12:01:40.183Z</time>
      </trkpt>
      <trkpt lat="49.01138" lon="7.68513">
        <ele>537.96196155546</ele>
        <time>2021-03-30T12:01:41.362Z</time>
      </trkpt>
      <trkpt lat="49.01122" lon="7.68473">
        <ele>538.84670090414</ele>
        <time>2021-03-30T12:01:42.552Z</time>
      </trkpt>
      <trkpt lat="49.01107" lon="7.68452">
        <ele>539.33893240521</ele>
        <time>2021-03-30T12:01:43.748Z</time>
      </trkpt>
      <trkpt lat="49.01097" lon="7.68451">
        <ele>539.36350078482</ele>
        <time>2021-03-30T12:01:44.948Z</time>
      </trkpt>
      <trkpt lat="49.01084" lon="7.6845">
        <ele>538.95564889838</ele>
        <time>2021-03-30T12:01:46.152Z</time>
      </trkpt>
      <trkpt lat="49.01028" lon="7.68443">
        <ele>538.37783930852</ele>
        <time>2021-03-30T12:01:47.375Z</time>
      </trkpt>
      <trkpt lat="49.00991" lon="7.6844">
        <ele>536.92305430171</ele>
        <time>2021-03-30T12:01:48.610Z</time>
      </trkpt>
      <trkpt lat="49.00982" lon="7.68442">
        <ele>534.91879386393</ele>
        <time>2021-03-30T12:01:49.848Z</time>
      </trkpt>
      <trkpt lat="49.00974" lon="7.68443">
        <ele>532.37051038823</ele>
        <time>2021-03-30T12:01:51.089Z</time>
      </trkpt>
      <trkpt lat="49.00931" lon="7.68473">
        <ele>529.02139107284</ele>
        <time>2021-03-30T12:01:52.346Z</time>
      </trkpt>
      <trkpt lat="49.00896" lon="7.68497">
        <ele>525.43126965212</ele>
        <time>2021-03-30T12:01:53.615Z</time>
      </trkpt>
      <trkpt lat="49.00863" lon="7.68522">
        <ele>521.37720523208</ele>
        <time>2021-03-30T12:01:54.897Z</time>
      </trkpt>
      <trkpt lat="49.00831" lon="7.68549">
        <ele>516.87827484453</ele>
        <time>2021-03-30T12:01:56.191Z</time>
      </trkpt>
      <trkpt lat="49.00815" lon="7.68578">
        <ele>511.89155433352</ele>
        <time>2021-03-30T12:01:57.493Z</time>
      </trkpt>
      <trkpt lat="49.00808" lon="7.68587">
        <ele>506.45030330956</ele>
        <time>2021-03-30T12:01:58.798Z</time>
      </trkpt>
      <trkpt lat="49.00801" lon="7.68575">
        <ele>500.59051382733</ele>
        <time>2021-03-30T12:02:00.107Z</time>
      </trkpt>
      <trkpt lat="49.00765" lon="7.68605">
        <ele>494.00776450546</ele>
        <time>2021-03-30T12:02:01.430Z</time>
      </trkpt>
      <trkpt lat="49.00728" lon="7.68633">
        <ele>486.4533717856</ele>
        <time>2021-03-30T12:02:02.766Z</time>
      </trkpt>
      <trkpt lat="49.00696" lon="7.68659">
        <ele>478.48794847425</ele>
        <time>2021-03-30T12:02:04.114Z</time>
      </trkpt>
      <trkpt lat="49.00677" lon="7.68612">
        <ele>471.38839327037</ele>
        <time>2021-03-30T12:02:05.475Z</time>
      </trkpt>
      <trkpt lat="49.0063" lon="7.68584">
        <ele>463.3153078487</ele>
        <time>2021-03-30T12:02:06.852Z</time>
      </trkpt>
      <trkpt lat="49.00576" lon="7.68547">
        <ele>455.57461449233</ele>
        <time>2021-03-30T12:02:08.249Z</time>
      </trkpt>
      <trkpt lat="49.00542" lon="7.685">
        <ele>447.65417350017</ele>
        <time>2021-03-30T12:02:09.661Z</time>
      </trkpt>
      <trkpt lat="49.00504" lon="7.68472">
        <ele>439.50322031489</ele>
        <time>2021-03-30T12:02:11.088Z</time>
      </trkpt>
      <trkpt lat="49.0047" lon="7.6845">
        <ele>431.84866156348</ele>
        <time>2021-03-30T12:02:12.527Z</time>
      </trkpt>
      <trkpt lat="49.00449" lon="7.68479">
        <ele>424.4645064801</ele>
        <time>2021-03-30T12:02:13.975Z</time>
      </trkpt>
      <trkpt lat="49.00413" lon="7.68472">
        <ele>417.35000375915</ele>
        <time>2021-03-30T12:02:15.435Z</time>
      </trkpt>
      <trkpt lat="49.00382" lon="7.68457">
        <ele>410.44462567392</ele>
        <time>2021-03-30T12:02:16.906Z</time>
      </trkpt>
      <trkpt lat="49.00351" lon="7.68451">
        <ele>403.62418830574</ele>
        <time>2021-03-30T12:02:18.388Z</time>
      </trkpt>
      <trkpt lat="49.00318" lon="7.68458">
        <ele>396.86526936479</ele>
        <time>2021-03-30T12:02:19.881Z</time>
      </trkpt>
      <trkpt lat="49.00287" lon="7.68461">
        <ele>390.72422318497</ele>
        <time>2021-03-30T12:02:21.384Z</time>
      </trkpt>
      <trkpt lat="49.00245" lon="7.68461">
        <ele>384.5921176126</ele>
        <time>2021-03-30T12:02:22.901Z</time>
      </trkpt>
      <trkpt lat="49.00218" lon="7.68459">
        <ele>379.18905502554</ele>
        <time>2021-03-30T12:02:24.427Z</time>
      </trkpt>
      <trkpt lat="49.00184" lon="7.68457">
        <ele>374.1089505111</ele>
        <time>2021-03-30T12:02:25.965Z</time>
      </trkpt>
      <trkpt lat="49.0015" lon="7.68436">
        <ele>369.18900985256</ele>
        <time>2021-03-30T12:02:27.515Z</time>
      </trkpt>
      <trkpt lat="49.00121" lon="7.6841">
        <ele>364.44314228861</ele>
        <time>2021-03-30T12:02:29.076Z</time>
      </trkpt>
      <trkpt lat="49.0009" lon="7.68394">
        <ele>359.64093469205</ele>
        <time>2021-03-30T12:02:30.648Z</time>
      </trkpt>
      <trkpt lat="49.0006" lon="7.68389">
        <ele>355.29799173875</ele>
        <time>2021-03-30T12:02:32.230Z</time>
      </trkpt>
      <trkpt lat="49.00042" lon="7.68366">
        <ele>351.74668415829</ele>
        <time>2021-03-30T12:02:33.820Z</time>
      </trkpt>
      <trkpt lat="49.00022" lon="7.68332">
        <ele>348.48835240177</ele>
        <time>2021-03-30T12:02:35.420Z</time>
      </trkpt>
      <trkpt lat="49.0001" lon="7.68305">
        <ele>345.45872285831</ele>
        <time>2021-03-30T12:02:37.027Z</time>
      </trkpt>
      <trkpt lat="49.00005" lon="7.68274">
        <ele>343.27146517895</ele>
        <time>2021-03-30T12:02:38.641Z</time>
      </trkpt>
      <trkpt lat="49.00009" lon="7.6825">
        <ele>341.2077772367</ele>
        <time>2021-03-30T12:02:40.261Z</time>
      </trkpt>
      <trkpt lat="49.00015" lon="7.68239">
        <ele>339.28425382047</ele>
        <time>2021-03-30T12:02:41.884Z</time>
      </trkpt>
      <trkpt lat="49" lon="7.68219">
        <ele>338.02930321262</ele>
        <time>2021-03-30T12:02:43.513Z</time>
      </trkpt>
      <trkpt lat="48.99976" lon="7.68163">
        <ele>336.89601396644</ele>
        <time>2021-03-30T12:02:45.157Z</time>
      </trkpt>
      <trkpt lat="48.99941" lon="7.6812">
        <ele>335.95516066417</ele>
        <time>2021-03-30T12:02:46.816Z</time>
      </trkpt>
      <trkpt lat="48.99886" lon="7.68103">
        <ele>334.94849456705</ele>
        <time>2021-03-30T12:02:48.494Z</time>
      </trkpt>
      <trkpt lat="48.9984" lon="7.68101">
        <ele>334.04766604846</ele>
        <time>2021-03-30T12:02:50.187Z</time>
      </trkpt>
      <trkpt lat="48.99797" lon="7.68126">
        <ele>332.94967131488</ele>
        <time>2021-03-30T12:02:51.895Z</time>
      </trkpt>
      <trkpt lat="48.9979" lon="7.68122">
        <ele>332.30926286758</ele>
        <time>2021-03-30T12:02:53.606Z</time>
      </trkpt>
      <trkpt lat="48.99789" lon="7.68116">
        <ele>331.87418222188</ele>
        <time>2021-03-30T12:02:55.318Z</time>
      </trkpt>
      <trkpt lat="48.99788" lon="7.68112">
        <ele>331.48218508414</ele>
        <time>2021-03-30T12:02:57.031Z</time>
      </trkpt>
      <trkpt lat="48.9979" lon="7.68107">
        <ele>331.20789105876</ele>
        <time>2021-03-30T12:02:58.746Z</time>
      </trkpt>
      <trkpt lat="48.99795" lon="7.68102">
        <ele>331.01189087877</ele>
        <time>2021-03-30T12:03:00.463Z</time>
      </trkpt>
      <trkpt lat="48.99799" lon="7.681">
        <ele>330.82593408234</ele>
        <time>2021-03-30T12:03:02.181Z</time>
      </trkpt>
      <trkpt lat="48.99804" lon="7.68097">
        <ele>330.65536324745</ele>
        <time>2021-03-30T12:03:03.901Z</time>
      </trkpt>
      <trkpt lat="48.99807" lon="7.68094">
        <ele>330.44878587062</ele>
        <time>2021-03-30T12:03:05.622Z</time>
      </trkpt>
      <trkpt lat="48.99809" lon="7.68089">
        <ele>330.20098045992</ele>
        <time>2021-03-30T12:03:07.344Z</time>
      </trkpt>
      <trkpt lat="48.99809" lon="7.68086">
        <ele>329.89660330171</ele>
        <time>2021-03-30T12:03:09.067Z</time>
      </trkpt>
      <trkpt lat="48.99809" lon="7.6808">
        <ele>329.53378375842</ele>
        <time>2021-03-30T12:03:10.791Z</time>
      </trkpt>
      <trkpt lat="48.99807" lon="7.68074">
        <ele>329.10980627625</ele>
        <time>2021-03-30T12:03:12.517Z</time>
      </trkpt>
      <trkpt lat="48.99806" lon="7.6807">
        <ele>328.68380527476</ele>
        <time>2021-03-30T12:03:14.244Z</time>
      </trkpt>
      <trkpt lat="48.99804" lon="7.68067">
        <ele>328.22472036748</ele>
        <time>2021-03-30T12:03:15.972Z</time>
      </trkpt>
      <trkpt lat="48.99801" lon="7.68065">
        <ele>327.73954979196</ele>
        <time>2021-03-30T12:03:17.701Z</time>
      </trkpt>
      <trkpt lat="48.99798" lon="7.68064">
        <ele>327.25155727454</ele>
        <time>2021-03-30T12:03:19.431Z</time>
      </trkpt>
      <trkpt lat="48.99792" lon="7.68064">
        <ele>326.73093187118</ele>
        <time>2021-03-30T12:03:21.163Z</time>
      </trkpt>
      <trkpt lat="48.99787" lon="7.68064">
        <ele>326.21164107951</ele>
        <time>2021-03-30T12:03:22.896Z</time>
      </trkpt>
      <trkpt lat="48.9978" lon="7.68064">
        <ele>325.68107773515</ele>
        <time>2021-03-30T12:03:24.632Z</time>
      </trkpt>
      <trkpt lat="48.99772" lon="7.68066">
        <ele>325.19443168253</ele>
        <time>2021-03-30T12:03:26.370Z</time>
      </trkpt>
      <trkpt lat="48.99764" lon="7.68072">
        <ele>324.80524048032</ele>
        <time>2021-03-30T12:03:28.111Z</time>
      </trkpt>
      <trkpt lat="48.9976" lon="7.68075">
        <ele>324.59241735271</ele>
        <time>2021-03-30T12:03:29.854Z</time>
      </trkpt>
      <trkpt lat="48.99753" lon="7.68083">
        <ele>324.45845463695</ele>
        <time>2021-03-30T12:03:31.600Z</time>
      </trkpt>
      <trkpt lat="48.99746" lon="7.6809">
        <ele>324.38735787652</ele>
        <time>2021-03-30T12:03:33.349Z</time>
      </trkpt>
      <trkpt lat="48.99741" lon="7.68093">
        <ele>324.47471922189</ele>
        <time>2021-03-30T12:03:35.099Z</time>
      </trkpt>
      <trkpt lat="48.9974" lon="7.68091">
        <ele>324.73797013264</ele>
        <time>2021-03-30T12:03:36.850Z</time>
      </trkpt>
      <trkpt lat="48.99738" lon="7.6809">
        <ele>325.14430356525</ele>
        <time>2021-03-30T12:03:38.602Z</time>
      </trkpt>
      <trkpt lat="48.99734" lon="7.68089">
        <ele>325.71118088299</ele>
        <time>2021-03-30T12:03:40.355Z</time>
      </trkpt>
      <trkpt lat="48.9973" lon="7.68089">
        <ele>326.48330461022</ele>
        <time>2021-03-30T12:03:42.109Z</time>
      </trkpt>
      <trkpt lat="48.99726" lon="7.68089">
        <ele>327.42501581945</ele>
        <time>2021-03-30T12:03:43.865Z</time>
      </trkpt>
      <trkpt lat="48.9972" lon="7.68091">
        <ele>328.54357387757</ele>
        <time>2021-03-30T12:03:45.623Z</time>
      </trkpt>
      <trkpt lat="48.99712" lon="7.68079">
        <ele>329.80886936243</ele>
        <time>2021-03-30T12:03:47.384Z</time>
      </trkpt>
      <trkpt lat="48.997" lon="7.68068">
        <ele>331.37241495067</ele>
        <time>2021-03-30T12:03:49.150Z</time>
      </trkpt>
      <trkpt lat="48.99692" lon="7.68064">
        <ele>333.07757415588</ele>
        <time>2021-03-30T12:03:50.919Z</time>
      </trkpt>
      <trkpt lat="48.99684" lon="7.68066">
        <ele>334.89384143592</ele>
        <time>2021-03-30T12:03:52.691Z</time>
      </trkpt>
      <trkpt lat="48.99664" lon="7.68063">
        <ele>337.0884709141</ele>
        <time>2021-03-30T12:03:54.469Z</time>
      </trkpt>
      <trkpt lat="48.99636" lon="7.6806">
        <ele>339.4469472806</ele>
        <time>2021-03-30T12:03:56.257Z</time>
      </trkpt>
      <trkpt lat="48.99618" lon="7.68055">
        <ele>341.62420012134</ele>
        <time>2021-03-30T12:03:58.051Z</time>
      </trkpt>
      <trkpt lat="48.99603" lon="7.68041">
        <ele>343.8457883091</ele>
        <time>2021-03-30T12:03:59.851Z</time>
      </trkpt>
      <trkpt lat="48.99588" lon="7.6802">
        <ele>346.22467099167</ele>
        <time>2021-03-30T12:04:01.657Z</time>
      </trkpt>
      <trkpt lat="48.99584" lon="7.68015">
        <ele>348.31836281002</ele>
        <time>2021-03-30T12:04:03.465Z</time>
      </trkpt>
      <trkpt lat="48.99602" lon="7.68011">
        <ele>350.28748669777</ele>
        <time>2021-03-30T12:04:05.279Z</time>
      </trkpt>
      <trkpt lat="48.99616" lon="7.68006">
        <ele>352.15372873964</ele>
        <time>2021-03-30T12:04:07.098Z</time>
      </trkpt>
      <trkpt lat="48.99627" lon="7.67999">
        <ele>354.00606523332</ele>
        <time>2021-03-30T12:04:08.921Z</time>
      </trkpt>
      <trkpt lat="48.99632" lon="7.67988">
        <ele>355.88049822472</ele>
        <time>2021-03-30T12:04:10.747Z</time>
      </trkpt>
      <trkpt lat="48.99624" lon="7.67986">
        <ele>357.69449712267</ele>
        <time>2021-03-30T12:04:12.576Z</time>
      </trkpt>
      <trkpt lat="48.99612" lon="7.67988">
        <ele>359.36970959641</ele>
        <time>2021-03-30T12:04:14.409Z</time>
      </trkpt>
      <trkpt lat="48.99605" lon="7.67986">
        <ele>360.97093772534</ele>
        <time>2021-03-30T12:04:16.244Z</time>
      </trkpt>
      <trkpt lat="48.99607" lon="7.67984">
        <ele>362.41721925574</ele>
        <time>2021-03-30T12:04:18.080Z</time>
      </trkpt>
      <trkpt lat="48.99617" lon="7.6798">
        <ele>363.74079730155</ele>
        <time>2021-03-30T12:04:19.919Z</time>
      </trkpt>
      <trkpt lat="48.99626" lon="7.67974">
        <ele>364.94966814728</ele>
        <time>2021-03-30T12:04:21.762Z</time>
      </trkpt>
      <trkpt lat="48.99634" lon="7.67963">
        <ele>365.97778693064</ele>
        <time>2021-03-30T12:04:23.608Z</time>
      </trkpt>
      <trkpt lat="48.99632" lon="7.6796">
        <ele>367.04850865177</ele>
        <time>2021-03-30T12:04:25.455Z</time>
      </trkpt>
      <trkpt lat="48.99621" lon="7.67958">
        <ele>368.14491154363</ele>
        <time>2021-03-30T12:04:27.306Z</time>
      </trkpt>
      <trkpt lat="48.99621" lon="7.67958">
        <ele>369.71757457408</ele>
        <time>2021-03-30T12:04:29.157Z</time>
      </trkpt>
      <trkpt lat="48.99614" lon="7.6796">
        <ele>370.43696704975</ele>
        <time>2021-03-30T12:04:31.010Z</time>
      </trkpt>
      <trkpt lat="48.99607" lon="7.67959">
        <ele>371.06661833077</ele>
        <time>2021-03-30T12:04:32.866Z</time>
      </trkpt>
      <trkpt lat="48.99612" lon="7.67948">
        <ele>371.47109194153</ele>
        <time>2021-03-30T12:04:34.725Z</time>
      </trkpt>
      <trkpt lat="48.99625" lon="7.67927">
        <ele>371.59324352733</ele>
        <time>2021-03-30T12:04:36.590Z</time>
      </trkpt>
      <trkpt lat="48.9962" lon="7.67926">
        <ele>371.92080113761</ele>
        <time>2021-03-30T12:04:38.457Z</time>
      </trkpt>
      <trkpt lat="48.99601" lon="7.67924">
        <ele>372.32438563872</ele>
        <time>2021-03-30T12:04:40.330Z</time>
      </trkpt>
      <trkpt lat="48.99596" lon="7.67923">
        <ele>372.47969080852</ele>
        <time>2021-03-30T12:04:42.205Z</time>
      </trkpt>
      <trkpt lat="48.99603" lon="7.67916">
        <ele>372.3496333313</ele>
        <time>2021-03-30T12:04:44.082Z</time>
      </trkpt>
      <trkpt lat="48.99608" lon="7.67905">
        <ele>372.11201650238</ele>
        <time>2021-03-30T12:04:45.962Z</time>
      </trkpt>
      <trkpt lat="48.99607" lon="7.67899">
        <ele>371.90429151517</ele>
        <time>2021-03-30T12:04:47.844Z</time>
      </trkpt>
      <trkpt lat="48.99588" lon="7.67874">
        <ele>371.65749294273</ele>
        <time>2021-03-30T12:04:49.734Z</time>
      </trkpt>
      <trkpt lat="48.99572" lon="7.6786">
        <ele>371.40776887921</ele>
        <time>2021-03-30T12:04:51.630Z</time>
      </trkpt>
      <trkpt lat="48.9955" lon="7.67853">
        <ele>371.08282019123</ele>
        <time>2021-03-30T12:04:53.534Z</time>
      </trkpt>
      <trkpt lat="48.99524" lon="7.6785">
        <ele>370.60634787229</ele>
        <time>2021-03-30T12:04:55.446Z</time>
      </trkpt>
      <trkpt lat="48.99497" lon="7.6785">
        <ele>370.15955465695</ele>
        <time>2021-03-30T12:04:57.367Z</time>
      </trkpt>
      <trkpt lat="48.99474" lon="7.67844">
        <ele>369.59658322222</ele>
        <time>2021-03-30T12:04:59.296Z</time>
      </trkpt>
      <trkpt lat="48.99451" lon="7.67838">
        <ele>368.95967571059</ele>
        <time>2021-03-30T12:05:01.233Z</time>
      </trkpt>
      <trkpt lat="48.99427" lon="7.67832">
        <ele>368.1745260091</ele>
        <time>2021-03-30T12:05:03.178Z</time>
      </trkpt>
      <trkpt lat="48.99409" lon="7.67824">
        <ele>367.1625991436</ele>
        <time>2021-03-30T12:05:05.129Z</time>
      </trkpt>
      <trkpt lat="48.99387" lon="7.6781">
        <ele>365.79684605144</ele>
        <time>2021-03-30T12:05:07.088Z</time>
      </trkpt>
      <trkpt lat="48.99366" lon="7.67803">
        <ele>364.24055739731</ele>
        <time>2021-03-30T12:05:09.054Z</time>
      </trkpt>
      <trkpt lat="48.99356" lon="7.67806">
        <ele>362.75998039541</ele>
        <time>2021-03-30T12:05:11.024Z</time>
      </trkpt>
      <trkpt lat="48.99355" lon="7.67807">
        <ele>361.3715874261</ele>
        <time>2021-03-30T12:05:12.994Z</time>
      </trkpt>
      <trkpt lat="48.99337" lon="7.67814">
        <ele>359.53705011767</ele>
        <time>2021-03-30T12:05:14.970Z</time>
      </trkpt>
      <trkpt lat="48.99322" lon="7.67832">
        <ele>357.70396190082</ele>
        <time>2021-03-30T12:05:16.953Z</time>
      </trkpt>
      <trkpt lat="48.99314" lon="7.67853">
        <ele>356.02462672177</ele>
        <time>2021-03-30T12:05:18.941Z</time>
      </trkpt>
      <trkpt lat="48.99312" lon="7.67871">
        <ele>354.38692468321</ele>
        <time>2021-03-30T12:05:20.933Z</time>
      </trkpt>
      <trkpt lat="48.99317" lon="7.67895">
        <ele>352.81839121958</ele>
        <time>2021-03-30T12:05:22.931Z</time>
      </trkpt>
      <trkpt lat="48.99325" lon="7.67915">
        <ele>351.15676770903</ele>
        <time>2021-03-30T12:05:24.934Z</time>
      </trkpt>
      <trkpt lat="48.99338" lon="7.67933">
        <ele>349.54105132634</ele>
        <time>2021-03-30T12:05:26.943Z</time>
      </trkpt>
      <trkpt lat="48.99352" lon="7.67953">
        <ele>347.77005235842</ele>
        <time>2021-03-30T12:05:28.958Z</time>
      </trkpt>
      <trkpt lat="48.99361" lon="7.67973">
        <ele>345.6939371472</ele>
        <time>2021-03-30T12:05:30.978Z</time>
      </trkpt>
      <trkpt lat="48.99367" lon="7.67979">
        <ele>343.70638845912</ele>
        <time>2021-03-30T12:05:33.001Z</time>
      </trkpt>
      <trkpt lat="48.99389" lon="7.67984">
        <ele>341.73869689613</ele>
        <time>2021-03-30T12:05:35.031Z</time>
      </trkpt>
      <trkpt lat="48.99397" lon="7.67988">
        <ele>339.59886433234</ele>
        <time>2021-03-30T12:05:37.064Z</time>
      </trkpt>
      <trkpt lat="48.99401" lon="7.67991">
        <ele>337.40550427824</ele>
        <time>2021-03-30T12:05:39.099Z</time>
      </trkpt>
      <trkpt lat="48.99389" lon="7.68003">
        <ele>334.98534069119</ele>
        <time>2021-03-30T12:05:41.138Z</time>
      </trkpt>
      <trkpt lat="48.99372" lon="7.68013">
        <ele>332.53234787765</ele>
        <time>2021-03-30T12:05:43.183Z</time>
      </trkpt>
      <trkpt lat="48.99347" lon="7.68017">
        <ele>329.87292760282</ele>
        <time>2021-03-30T12:05:45.237Z</time>
      </trkpt>
      <trkpt lat="48.99325" lon="7.68011">
        <ele>327.18127221914</ele>
        <time>2021-03-30T12:05:47.298Z</time>
      </trkpt>
      <trkpt lat="48.99296" lon="7.68002">
        <ele>324.45541153223</ele>
        <time>2021-03-30T12:05:49.369Z</time>
      </trkpt>
      <trkpt lat="48.99274" lon="7.67996">
        <ele>321.8995756393</ele>
        <time>2021-03-30T12:05:51.448Z</time>
      </trkpt>
      <trkpt lat="48.9925" lon="7.67988">
        <ele>319.34588992402</ele>
        <time>2021-03-30T12:05:53.535Z</time>
      </trkpt>
      <trkpt lat="48.9924" lon="7.67984">
        <ele>317.13034055534</ele>
        <time>2021-03-30T12:05:55.625Z</time>
      </trkpt>
      <trkpt lat="48.99233" lon="7.67976">
        <ele>315.11439156022</ele>
        <time>2021-03-30T12:05:57.718Z</time>
      </trkpt>
      <trkpt lat="48.99225" lon="7.67958">
        <ele>313.25001731201</ele>
        <time>2021-03-30T12:05:59.816Z</time>
      </trkpt>
      <trkpt lat="48.99225" lon="7.67955">
        <ele>311.53061228883</ele>
        <time>2021-03-30T12:06:01.915Z</time>
      </trkpt>
      <trkpt lat="48.9923" lon="7.67921">
        <ele>310.28532285961</ele>
        <time>2021-03-30T12:06:04.021Z</time>
      </trkpt>
      <trkpt lat="48.9923" lon="7.6789">
        <ele>308.80855711242</ele>
        <time>2021-03-30T12:06:06.134Z</time>
      </trkpt>
      <trkpt lat="48.99232" lon="7.67839">
        <ele>307.36849189459</ele>
        <time>2021-03-30T12:06:08.258Z</time>
      </trkpt>
      <trkpt lat="48.9924" lon="7.67798">
        <ele>305.79729168649</ele>
        <time>2021-03-30T12:06:10.392Z</time>
      </trkpt>
      <trkpt lat="48.99255" lon="7.67733">
        <ele>304.16796827237</ele>
        <time>2021-03-30T12:06:12.541Z</time>
      </trkpt>
      <trkpt lat="48.99264" lon="7.67705">
        <ele>302.63898775821</ele>
        <time>2021-03-30T12:06:14.697Z</time>
      </trkpt>
      <trkpt lat="48.99264" lon="7.67705">
        <ele>301.06982004985</ele>
        <time>2021-03-30T12:06:16.853Z</time>
      </trkpt>
      <trkpt lat="48.99268" lon="7.67693">
        <ele>299.42679843829</ele>
        <time>2021-03-30T12:06:19.012Z</time>
      </trkpt>
      <trkpt lat="48.99283" lon="7.67667">
        <ele>297.72290691176</ele>
        <time>2021-03-30T12:06:21.178Z</time>
      </trkpt>
      <trkpt lat="48.99302" lon="7.6766">
        <ele>296.13538069072</ele>
        <time>2021-03-30T12:06:23.351Z</time>
      </trkpt>
      <trkpt lat="48.99328" lon="7.67656">
        <ele>294.60238490987</ele>
        <time>2021-03-30T12:06:25.532Z</time>
      </trkpt>
      <trkpt lat="48.99342" lon="7.67629">
        <ele>292.49376164215</ele>
        <time>2021-03-30T12:06:27.721Z</time>
      </trkpt>
      <trkpt lat="48.99353" lon="7.67606">
        <ele>290.42495212967</ele>
        <time>2021-03-30T12:06:29.916Z</time>
      </trkpt>
      <trkpt lat="48.99371" lon="7.6758">
        <ele>288.34391385241</ele>
        <time>2021-03-30T12:06:32.119Z</time>
      </trkpt>
      <trkpt lat="48.99393" lon="7.67558">
        <ele>286.01546307694</ele>
        <time>2021-03-30T12:06:34.331Z</time>
      </trkpt>
      <trkpt lat="48.99414" lon="7.67541">
        <ele>283.74354784082</ele>
        <time>2021-03-30T12:06:36.551Z</time>
      </trkpt>
      <trkpt lat="48.99441" lon="7.67523">
        <ele>281.50755874811</ele>
        <time>2021-03-30T12:06:38.781Z</time>
      </trkpt>
      <trkpt lat="48.99468" lon="7.67507">
        <ele>279.21001938628</ele>
        <time>2021-03-30T12:06:41.021Z</time>
      </trkpt>
      <trkpt lat="48.995" lon="7.67491">
        <ele>276.90004210658</ele>
        <time>2021-03-30T12:06:43.272Z</time>
      </trkpt>
      <trkpt lat="48.99528" lon="7.67478">
        <ele>274.6022078126</ele>
        <time>2021-03-30T12:06:45.533Z</time>
      </trkpt>
      <trkpt lat="48.9955" lon="7.6747">
        <ele>272.43019860993</ele>
        <time>2021-03-30T12:06:47.801Z</time>
      </trkpt>
      <trkpt lat="48.99564" lon="7.67459">
        <ele>270.30020802326</ele>
        <time>2021-03-30T12:06:50.075Z</time>
      </trkpt>
      <trkpt lat="48.99572" lon="7.67444">
        <ele>268.27194587454</ele>
        <time>2021-03-30T12:06:52.353Z</time>
      </trkpt>
      <trkpt lat="48.99579" lon="7.67423">
        <ele>266.38042880153</ele>
        <time>2021-03-30T12:06:54.636Z</time>
      </trkpt>
      <trkpt lat="48.99581" lon="7.67398">
        <ele>264.68010974004</ele>
        <time>2021-03-30T12:06:56.924Z</time>
      </trkpt>
      <trkpt lat="48.99581" lon="7.67378">
        <ele>263.23857425598</ele>
        <time>2021-03-30T12:06:59.217Z</time>
      </trkpt>
      <trkpt lat="48.99581" lon="7.67371">
        <ele>261.91809601102</ele>
        <time>2021-03-30T12:07:01.511Z</time>
      </trkpt>
      <trkpt lat="48.99573" lon="7.67339">
        <ele>260.869224342</ele>
        <time>2021-03-30T12:07:03.813Z</time>
      </trkpt>
      <trkpt lat="48.99564" lon="7.67311">
        <ele>260.09454474472</ele>
        <time>2021-03-30T12:07:06.122Z</time>
      </trkpt>
      <trkpt lat="48.99542" lon="7.67293">
        <ele>259.2960737061</ele>
        <time>2021-03-30T12:07:08.439Z</time>
      </trkpt>
      <trkpt lat="48.99513" lon="7.6728">
        <ele>258.42235525743</ele>
        <time>2021-03-30T12:07:10.766Z</time>
      </trkpt>
      <trkpt lat="48.99488" lon="7.67272">
        <ele>257.43761038887</ele>
        <time>2021-03-30T12:07:13.102Z</time>
      </trkpt>
      <trkpt lat="48.99465" lon="7.67257">
        <ele>256.67757220858</ele>
        <time>2021-03-30T12:07:15.446Z</time>
      </trkpt>
      <trkpt lat="48.99392" lon="7.67229">
        <ele>255.63228899426</ele>
        <time>2021-03-30T12:07:17.815Z</time>
      </trkpt>
      <trkpt lat="48.99358" lon="7.67218">
        <ele>254.59507382225</ele>
        <time>2021-03-30T12:07:20.196Z</time>
      </trkpt>
      <trkpt lat="48.99332" lon="7.672">
        <ele>253.58329796854</ele>
        <time>2021-03-30T12:07:22.586Z</time>
      </trkpt>
      <trkpt lat="48.99319" lon="7.67173">
        <ele>252.78523071133</ele>
        <time>2021-03-30T12:07:24.984Z</time>
      </trkpt>
      <trkpt lat="48.99311" lon="7.67167">
        <ele>251.78242736496</ele>
        <time>2021-03-30T12:07:27.385Z</time>
      </trkpt>
      <trkpt lat="48.99297" lon="7.67158">
        <ele>250.66180560893</ele>
        <time>2021-03-30T12:07:29.791Z</time>
      </trkpt>
      <trkpt lat="48.99275" lon="7.67138">
        <ele>249.51880232371</ele>
        <time>2021-03-30T12:07:32.205Z</time>
      </trkpt>
      <trkpt lat="48.99259" lon="7.67118">
        <ele>248.42484736525</ele>
        <time>2021-03-30T12:07:34.626Z</time>
      </trkpt>
      <trkpt lat="48.99244" lon="7.67085">
        <ele>247.33792226443</ele>
        <time>2021-03-30T12:07:37.056Z</time>
      </trkpt>
      <trkpt lat="48.99235" lon="7.67058">
        <ele>246.29000710595</ele>
        <time>2021-03-30T12:07:39.493Z</time>
      </trkpt>
      <trkpt lat="48.99228" lon="7.6702">
        <ele>245.22991172805</ele>
        <time>2021-03-30T12:07:41.938Z</time>
      </trkpt>
      <trkpt lat="48.99223" lon="7.66979">
        <ele>244.37846959478</ele>
        <time>2021-03-30T12:07:44.392Z</time>
      </trkpt>
      <trkpt lat="48.99219" lon="7.66932">
        <ele>243.60040877826</ele>
        <time>2021-03-30T12:07:46.857Z</time>
      </trkpt>
      <trkpt lat="48.99217" lon="7.66883">
        <ele>242.42510725311</ele>
        <time>2021-03-30T12:07:49.333Z</time>
      </trkpt>
      <trkpt lat="48.99217" lon="7.66828">
        <ele>241.32737975219</ele>
        <time>2021-03-30T12:07:51.821Z</time>
      </trkpt>
      <trkpt lat="48.99216" lon="7.66756">
        <ele>240.41855119073</ele>
        <time>2021-03-30T12:07:54.324Z</time>
      </trkpt>
      <trkpt lat="48.99216" lon="7.66741">
        <ele>239.44806872289</ele>
        <time>2021-03-30T12:07:56.831Z</time>
      </trkpt>
      <trkpt lat="48.99216" lon="7.66679">
        <ele>238.51158829478</ele>
        <time>2021-03-30T12:07:59.351Z</time>
      </trkpt>
      <trkpt lat="48.99218" lon="7.66641">
        <ele>237.52147358051</ele>
        <time>2021-03-30T12:08:01.880Z</time>
      </trkpt>
      <trkpt lat="48.99219" lon="7.6661">
        <ele>236.49620674069</ele>
        <time>2021-03-30T12:08:04.416Z</time>
      </trkpt>
      <trkpt lat="48.9922" lon="7.66579">
        <ele>235.41742232338</ele>
        <time>2021-03-30T12:08:06.958Z</time>
      </trkpt>
      <trkpt lat="48.99219" lon="7.66574">
        <ele>234.36364226478</ele>
        <time>2021-03-30T12:08:09.502Z</time>
      </trkpt>
      <trkpt lat="48.99216" lon="7.66557">
        <ele>233.19830858195</ele>
        <time>2021-03-30T12:08:12.049Z</time>
      </trkpt>
      <trkpt lat="48.9921" lon="7.66539">
        <ele>231.96857859128</ele>
        <time>2021-03-30T12:08:14.601Z</time>
      </trkpt>
      <trkpt lat="48.99199" lon="7.66517">
        <ele>230.7638153316</ele>
        <time>2021-03-30T12:08:17.159Z</time>
      </trkpt>
      <trkpt lat="48.99197" lon="7.66513">
        <ele>229.72905311202</ele>
        <time>2021-03-30T12:08:19.718Z</time>
      </trkpt>
      <trkpt lat="48.99191" lon="7.66496">
        <ele>228.65555724871</ele>
        <time>2021-03-30T12:08:22.281Z</time>
      </trkpt>
      <trkpt lat="48.99206" lon="7.66416">
        <ele>227.68579757867</ele>
        <time>2021-03-30T12:08:24.862Z</time>
      </trkpt>
      <trkpt lat="48.9922" lon="7.66355">
        <ele>226.87327622039</ele>
        <time>2021-03-30T12:08:27.458Z</time>
      </trkpt>
      <trkpt lat="48.99238" lon="7.66289">
        <ele>225.88475683326</ele>
        <time>2021-03-30T12:08:30.069Z</time>
      </trkpt>
      <trkpt lat="48.99256" lon="7.6624">
        <ele>225.01825698218</ele>
        <time>2021-03-30T12:08:32.693Z</time>
      </trkpt>
      <trkpt lat="48.99276" lon="7.66196">
        <ele>224.13849860974</ele>
        <time>2021-03-30T12:08:35.328Z</time>
      </trkpt>
      <trkpt lat="48.99296" lon="7.66166">
        <ele>223.18253557575</ele>
        <time>2021-03-30T12:08:37.973Z</time>
      </trkpt>
      <trkpt lat="48.99321" lon="7.66143">
        <ele>222.35004183076</ele>
        <time>2021-03-30T12:08:40.628Z</time>
      </trkpt>
      <trkpt lat="48.99361" lon="7.66101">
        <ele>221.69932106371</ele>
        <time>2021-03-30T12:08:43.299Z</time>
      </trkpt>
      <trkpt lat="48.99414" lon="7.66046">
        <ele>221.02315355021</ele>
        <time>2021-03-30T12:08:45.991Z</time>
      </trkpt>
      <trkpt lat="48.99442" lon="7.66026">
        <ele>220.4753151324</ele>
        <time>2021-03-30T12:08:48.694Z</time>
      </trkpt>
      <trkpt lat="48.99463" lon="7.66018">
        <ele>219.96580176427</ele>
        <time>2021-03-30T12:08:51.404Z</time>
      </trkpt>
      <trkpt lat="48.99487" lon="7.6601">
        <ele>219.47892931265</ele>
        <time>2021-03-30T12:08:54.122Z</time>
      </trkpt>
      <trkpt lat="48.99487" lon="7.66003">
        <ele>219.05347028791</ele>
        <time>2021-03-30T12:08:56.841Z</time>
      </trkpt>
      <trkpt lat="48.99489" lon="7.65994">
        <ele>218.72232982722</ele>
        <time>2021-03-30T12:08:59.563Z</time>
      </trkpt>
      <trkpt lat="48.99492" lon="7.65975">
        <ele>218.43432265366</ele>
        <time>2021-03-30T12:09:02.289Z</time>
      </trkpt>
      <trkpt lat="48.99497" lon="7.65957">
        <ele>218.26270123105</ele>
        <time>2021-03-30T12:09:05.019Z</time>
      </trkpt>
      <trkpt lat="48.99501" lon="7.65944">
        <ele>218.16848094285</ele>
        <time>2021-03-30T12:09:07.752Z</time>
      </trkpt>
      <trkpt lat="48.99506" lon="7.6593">
        <ele>218.16768256084</ele>
        <time>2021-03-30T12:09:10.489Z</time>
      </trkpt>
      <trkpt lat="48.99512" lon="7.65917">
        <ele>218.24669981167</ele>
        <time>2021-03-30T12:09:13.229Z</time>
      </trkpt>
      <trkpt lat="48.99517" lon="7.65906">
        <ele>218.42441001721</ele>
        <time>2021-03-30T12:09:15.972Z</time>
      </trkpt>
      <trkpt lat="48.99519" lon="7.65897">
        <ele>218.68659957868</ele>
        <time>2021-03-30T12:09:18.717Z</time>
      </trkpt>
      <trkpt lat="48.9952" lon="7.65888">
        <ele>219.05224562139</ele>
        <time>2021-03-30T12:09:21.464Z</time>
      </trkpt>
      <trkpt lat="48.99519" lon="7.65878">
        <ele>219.49641768861</ele>
        <time>2021-03-30T12:09:24.214Z</time>
      </trkpt>
      <trkpt lat="48.99518" lon="7.6587">
        <ele>220.00395880947</ele>
        <time>2021-03-30T12:09:26.965Z</time>
      </trkpt>
      <trkpt lat="48.99517" lon="7.6586">
        <ele>220.56887679255</ele>
        <time>2021-03-30T12:09:29.719Z</time>
      </trkpt>
      <trkpt lat="48.99515" lon="7.65853">
        <ele>221.187289415</ele>
        <time>2021-03-30T12:09:32.474Z</time>
      </trkpt>
      <trkpt lat="48.99514" lon="7.65851">
        <ele>221.8542570237</ele>
        <time>2021-03-30T12:09:35.230Z</time>
      </trkpt>
      <trkpt lat="48.99515" lon="7.65851">
        <ele>222.57176363232</ele>
        <time>2021-03-30T12:09:37.986Z</time>
      </trkpt>
      <trkpt lat="48.99513" lon="7.65848">
        <ele>223.33769641673</ele>
        <time>2021-03-30T12:09:40.743Z</time>
      </trkpt>
      <trkpt lat="48.99509" lon="7.65838">
        <ele>224.16933269209</ele>
        <time>2021-03-30T12:09:43.503Z</time>
      </trkpt>
      <trkpt lat="48.99505" lon="7.6583">
        <ele>225.0252855844</ele>
        <time>2021-03-30T12:09:46.265Z</time>
      </trkpt>
      <trkpt lat="48.99497" lon="7.65822">
        <ele>225.91613213506</ele>
        <time>2021-03-30T12:09:49.030Z</time>
      </trkpt>
      <trkpt lat="48.99491" lon="7.65816">
        <ele>226.80439963515</ele>
        <time>2021-03-30T12:09:51.797Z</time>
      </trkpt>
      <trkpt lat="48.99471" lon="7.65803">
        <ele>227.87582654428</ele>
        <time>2021-03-30T12:09:54.572Z</time>
      </trkpt>
      <trkpt lat="48.99471" lon="7.65803">
        <ele>229.52654255162</ele>
        <time>2021-03-30T12:09:57.347Z</time>
      </trkpt>
      <trkpt lat="48.99458" lon="7.65792">
        <ele>230.4978562937</ele>
        <time>2021-03-30T12:10:00.127Z</time>
      </trkpt>
      <trkpt lat="48.99446" lon="7.6576">
        <ele>231.47005828909</ele>
        <time>2021-03-30T12:10:02.915Z</time>
      </trkpt>
      <trkpt lat="48.99441" lon="7.65748">
        <ele>232.20579072489</ele>
        <time>2021-03-30T12:10:05.706Z</time>
      </trkpt>
      <trkpt lat="48.99438" lon="7.65737">
        <ele>232.83740612988</ele>
        <time>2021-03-30T12:10:08.499Z</time>
      </trkpt>
      <trkpt lat="48.99435" lon="7.65721">
        <ele>233.39519364335</ele>
        <time>2021-03-30T12:10:11.296Z</time>
      </trkpt>
      <trkpt lat="48.99432" lon="7.65697">
        <ele>233.82969943497</ele>
        <time>2021-03-30T12:10:14.098Z</time>
      </trkpt>
      <trkpt lat="48.9943" lon="7.65678">
        <ele>234.22578517145</ele>
        <time>2021-03-30T12:10:16.905Z</time>
      </trkpt>
      <trkpt lat="48.99428" lon="7.65653">
        <ele>234.55268319538</ele>
        <time>2021-03-30T12:10:19.717Z</time>
      </trkpt>
      <trkpt lat="48.99427" lon="7.65629">
        <ele>234.8146859398</ele>
        <time>2021-03-30T12:10:22.534Z</time>
      </trkpt>
      <trkpt lat="48.99426" lon="7.65614">
        <ele>235.00740684305</ele>
        <time>2021-03-30T12:10:25.355Z</time>
      </trkpt>
      <trkpt lat="48.99424" lon="7.65602">
        <ele>235.09940870926</ele>
        <time>2021-03-30T12:10:28.178Z</time>
      </trkpt>
      <trkpt lat="48.9942" lon="7.65591">
        <ele>235.14592698703</ele>
        <time>2021-03-30T12:10:31.004Z</time>
      </trkpt>
      <trkpt lat="48.99415" lon="7.6558">
        <ele>235.13403389794</ele>
        <time>2021-03-30T12:10:33.833Z</time>
      </trkpt>
      <trkpt lat="48.99409" lon="7.65569">
        <ele>235.08203007958</ele>
        <time>2021-03-30T12:10:36.665Z</time>
      </trkpt>
      <trkpt lat="48.99402" lon="7.65558">
        <ele>235.01154709509</ele>
        <time>2021-03-30T12:10:39.501Z</time>
      </trkpt>
      <trkpt lat="48.99375" lon="7.65527">
        <ele>235.00834843313</ele>
        <time>2021-03-30T12:10:42.348Z</time>
      </trkpt>
      <trkpt lat="48.99361" lon="7.65514">
        <ele>234.88127258871</ele>
        <time>2021-03-30T12:10:45.200Z</time>
      </trkpt>
      <trkpt lat="48.99348" lon="7.6549">
        <ele>234.75796504638</ele>
        <time>2021-03-30T12:10:48.059Z</time>
      </trkpt>
      <trkpt lat="48.9934" lon="7.65459">
        <ele>234.65924881916</ele>
        <time>2021-03-30T12:10:50.926Z</time>
      </trkpt>
      <trkpt lat="48.99334" lon="7.65422">
        <ele>234.60038943176</ele>
        <time>2021-03-30T12:10:53.801Z</time>
      </trkpt>
      <trkpt lat="48.99332" lon="7.65391">
        <ele>234.58197665836</ele>
        <time>2021-03-30T12:10:56.683Z</time>
      </trkpt>
      <trkpt lat="48.99331" lon="7.6537">
        <ele>234.64724127841</ele>
        <time>2021-03-30T12:10:59.569Z</time>
      </trkpt>
      <trkpt lat="48.99333" lon="7.65365">
        <ele>234.86619374404</ele>
        <time>2021-03-30T12:11:02.457Z</time>
      </trkpt>
      <trkpt lat="48.99329" lon="7.65353">
        <ele>235.20161875164</ele>
        <time>2021-03-30T12:11:05.348Z</time>
      </trkpt>
      <trkpt lat="48.99325" lon="7.65336">
        <ele>235.7067999466</ele>
        <time>2021-03-30T12:11:08.243Z</time>
      </trkpt>
      <trkpt lat="48.99318" lon="7.653">
        <ele>236.4611776775</ele>
        <time>2021-03-30T12:11:11.146Z</time>
      </trkpt>
      <trkpt lat="48.99308" lon="7.65247">
        <ele>237.4079667113</ele>
        <time>2021-03-30T12:11:14.061Z</time>
      </trkpt>
      <trkpt lat="48.99304" lon="7.65223">
        <ele>238.56108943242</ele>
        <time>2021-03-30T12:11:16.981Z</time>
      </trkpt>
      <trkpt lat="48.993" lon="7.65199">
        <ele>239.95398184216</ele>
        <time>2021-03-30T12:11:19.907Z</time>
      </trkpt>
      <trkpt lat="48.99305" lon="7.65187">
        <ele>241.59783195391</ele>
        <time>2021-03-30T12:11:22.836Z</time>
      </trkpt>
      <trkpt lat="48.99313" lon="7.65156">
        <ele>243.58564182416</ele>
        <time>2021-03-30T12:11:25.772Z</time>
      </trkpt>
      <trkpt lat="48.99322" lon="7.65107">
        <ele>245.76633294069</ele>
        <time>2021-03-30T12:11:28.719Z</time>
      </trkpt>
      <trkpt lat="48.99338" lon="7.65022">
        <ele>248.17271373926</ele>
        <time>2021-03-30T12:11:31.686Z</time>
      </trkpt>
      <trkpt lat="48.99349" lon="7.64983">
        <ele>250.76519648079</ele>
        <time>2021-03-30T12:11:34.662Z</time>
      </trkpt>
      <trkpt lat="48.99359" lon="7.64921">
        <ele>253.57017183241</ele>
        <time>2021-03-30T12:11:37.652Z</time>
      </trkpt>
      <trkpt lat="48.99369" lon="7.64872">
        <ele>256.82361717087</ele>
        <time>2021-03-30T12:11:40.653Z</time>
      </trkpt>
      <trkpt lat="48.99386" lon="7.64803">
        <ele>260.52833951337</ele>
        <time>2021-03-30T12:11:43.671Z</time>
      </trkpt>
      <trkpt lat="48.99396" lon="7.64758">
        <ele>264.6090020107</ele>
        <time>2021-03-30T12:11:46.699Z</time>
      </trkpt>
      <trkpt lat="48.99401" lon="7.64753">
        <ele>268.69673530864</ele>
        <time>2021-03-30T12:11:49.729Z</time>
      </trkpt>
      <trkpt lat="48.99395" lon="7.64739">
        <ele>273.23211155079</ele>
        <time>2021-03-30T12:11:52.763Z</time>
      </trkpt>
      <trkpt lat="48.99385" lon="7.64711">
        <ele>278.30845190551</ele>
        <time>2021-03-30T12:11:55.804Z</time>
      </trkpt>
      <trkpt lat="48.99373" lon="7.64696">
        <ele>283.57570835439</ele>
        <time>2021-03-30T12:11:58.850Z</time>
      </trkpt>
      <trkpt lat="48.99358" lon="7.64674">
        <ele>289.40447083548</ele>
        <time>2021-03-30T12:12:01.903Z</time>
      </trkpt>
      <trkpt lat="48.9935" lon="7.64657">
        <ele>295.09420730425</ele>
        <time>2021-03-30T12:12:04.960Z</time>
      </trkpt>
      <trkpt lat="48.99335" lon="7.64642">
        <ele>301.07627301193</ele>
        <time>2021-03-30T12:12:08.023Z</time>
      </trkpt>
      <trkpt lat="48.99323" lon="7.64621">
        <ele>307.2040150727</ele>
        <time>2021-03-30T12:12:11.093Z</time>
      </trkpt>
      <trkpt lat="48.99309" lon="7.64599">
        <ele>313.15673866056</ele>
        <time>2021-03-30T12:12:14.169Z</time>
      </trkpt>
      <trkpt lat="48.99295" lon="7.64573">
        <ele>319.07702669256</ele>
        <time>2021-03-30T12:12:17.253Z</time>
      </trkpt>
      <trkpt lat="48.99285" lon="7.64551">
        <ele>325.00349739569</ele>
        <time>2021-03-30T12:12:20.342Z</time>
      </trkpt>
      <trkpt lat="48.99272" lon="7.64535">
        <ele>331.04501445509</ele>
        <time>2021-03-30T12:12:23.437Z</time>
      </trkpt>
      <trkpt lat="48.99269" lon="7.64513">
        <ele>336.98775976817</ele>
        <time>2021-03-30T12:12:26.537Z</time>
      </trkpt>
      <trkpt lat="48.9926" lon="7.64504">
        <ele>343.09889924994</ele>
        <time>2021-03-30T12:12:29.641Z</time>
      </trkpt>
      <trkpt lat="48.99238" lon="7.64485">
        <ele>349.41628314021</ele>
        <time>2021-03-30T12:12:32.753Z</time>
      </trkpt>
      <trkpt lat="48.99198" lon="7.64444">
        <ele>355.85613504471</ele>
        <time>2021-03-30T12:12:35.881Z</time>
      </trkpt>
      <trkpt lat="48.99158" lon="7.64396">
        <ele>362.10283056175</ele>
        <time>2021-03-30T12:12:39.026Z</time>
      </trkpt>
      <trkpt lat="48.99122" lon="7.6436">
        <ele>368.22231108254</ele>
        <time>2021-03-30T12:12:42.186Z</time>
      </trkpt>
      <trkpt lat="48.99095" lon="7.64326">
        <ele>374.30154386409</ele>
        <time>2021-03-30T12:12:45.357Z</time>
      </trkpt>
      <trkpt lat="48.99048" lon="7.6427">
        <ele>380.736616985</ele>
        <time>2021-03-30T12:12:48.548Z</time>
      </trkpt>
      <trkpt lat="48.98997" lon="7.64213">
        <ele>386.98973751634</ele>
        <time>2021-03-30T12:12:51.760Z</time>
      </trkpt>
      <trkpt lat="48.98968" lon="7.64182">
        <ele>392.83385192903</ele>
        <time>2021-03-30T12:12:54.984Z</time>
      </trkpt>
      <trkpt lat="48.98967" lon="7.64181">
        <ele>398.41355281154</ele>
        <time>2021-03-30T12:12:58.209Z</time>
      </trkpt>
      <trkpt lat="48.98957" lon="7.6417">
        <ele>403.91028520601</ele>
        <time>2021-03-30T12:13:01.438Z</time>
      </trkpt>
      <trkpt lat="48.98922" lon="7.64137">
        <ele>409.73840682989</ele>
        <time>2021-03-30T12:13:04.680Z</time>
      </trkpt>
      <trkpt lat="48.98881" lon="7.64099">
        <ele>415.63004987117</ele>
        <time>2021-03-30T12:13:07.938Z</time>
      </trkpt>
      <trkpt lat="48.98843" lon="7.64067">
        <ele>421.40314120846</ele>
        <time>2021-03-30T12:13:11.211Z</time>
      </trkpt>
      <trkpt lat="48.98787" lon="7.64021">
        <ele>426.81834546259</ele>
        <time>2021-03-30T12:13:14.505Z</time>
      </trkpt>
      <trkpt lat="48.98764" lon="7.64002">
        <ele>431.5726015461</ele>
        <time>2021-03-30T12:13:17.808Z</time>
      </trkpt>
      <trkpt lat="48.98738" lon="7.63978">
        <ele>436.02957069678</ele>
        <time>2021-03-30T12:13:21.121Z</time>
      </trkpt>
      <trkpt lat="48.98731" lon="7.63967">
        <ele>439.83487953005</ele>
        <time>2021-03-30T12:13:24.437Z</time>
      </trkpt>
      <trkpt lat="48.98708" lon="7.63932">
        <ele>443.12832179619</ele>
        <time>2021-03-30T12:13:27.764Z</time>
      </trkpt>
      <trkpt lat="48.98686" lon="7.63902">
        <ele>446.18089434635</ele>
        <time>2021-03-30T12:13:31.101Z</time>
      </trkpt>
      <trkpt lat="48.98668" lon="7.63882">
        <ele>449.21801519098</ele>
        <time>2021-03-30T12:13:34.446Z</time>
      </trkpt>
      <trkpt lat="48.98654" lon="7.63864">
        <ele>452.07710094409</ele>
        <time>2021-03-30T12:13:37.797Z</time>
      </trkpt>
      <trkpt lat="48.9864" lon="7.63839">
        <ele>454.78096121368</ele>
        <time>2021-03-30T12:13:41.155Z</time>
      </trkpt>
      <trkpt lat="48.98627" lon="7.63813">
        <ele>457.23361308064</ele>
        <time>2021-03-30T12:13:44.520Z</time>
      </trkpt>
      <trkpt lat="48.9861" lon="7.63776">
        <ele>459.64559463946</ele>
        <time>2021-03-30T12:13:47.895Z</time>
      </trkpt>
      <trkpt lat="48.98599" lon="7.63751">
        <ele>461.78831241201</ele>
        <time>2021-03-30T12:13:51.277Z</time>
      </trkpt>
      <trkpt lat="48.98593" lon="7.63734">
        <ele>463.87354191269</ele>
        <time>2021-03-30T12:13:54.663Z</time>
      </trkpt>
      <trkpt lat="48.98589" lon="7.63719">
        <ele>465.79907057933</ele>
        <time>2021-03-30T12:13:58.052Z</time>
      </trkpt>
      <trkpt lat="48.98587" lon="7.6371">
        <ele>467.53445783302</ele>
        <time>2021-03-30T12:14:01.443Z</time>
      </trkpt>
      <trkpt lat="48.98588" lon="7.63709">
        <ele>469.06163691057</ele>
        <time>2021-03-30T12:14:04.835Z</time>
      </trkpt>
      <trkpt lat="48.98587" lon="7.637">
        <ele>470.52562759766</ele>
        <time>2021-03-30T12:14:08.229Z</time>
      </trkpt>
      <trkpt lat="48.98571" lon="7.63664">
        <ele>472.4247246857</ele>
        <time>2021-03-30T12:14:11.632Z</time>
      </trkpt>
      <trkpt lat="48.98566" lon="7.63633">
        <ele>473.90944953543</ele>
        <time>2021-03-30T12:14:15.042Z</time>
      </trkpt>
      <trkpt lat="48.98566" lon="7.63627">
        <ele>475.04882064248</ele>
        <time>2021-03-30T12:14:18.454Z</time>
      </trkpt>
      <trkpt lat="48.98559" lon="7.63584">
        <ele>476.46991374647</ele>
        <time>2021-03-30T12:14:21.875Z</time>
      </trkpt>
      <trkpt lat="48.98556" lon="7.63539">
        <ele>477.4806623273</ele>
        <time>2021-03-30T12:14:25.306Z</time>
      </trkpt>
      <trkpt lat="48.9855" lon="7.6349">
        <ele>478.34315888666</ele>
        <time>2021-03-30T12:14:28.748Z</time>
      </trkpt>
      <trkpt lat="48.98549" lon="7.63442">
        <ele>479.02936113676</ele>
        <time>2021-03-30T12:14:32.201Z</time>
      </trkpt>
      <trkpt lat="48.98548" lon="7.63449">
        <ele>479.52162436654</ele>
        <time>2021-03-30T12:14:35.655Z</time>
      </trkpt>
      <trkpt lat="48.98526" lon="7.63461">
        <ele>480.05826233945</ele>
        <time>2021-03-30T12:14:39.117Z</time>
      </trkpt>
      <trkpt lat="48.98492" lon="7.6347">
        <ele>480.57501968251</ele>
        <time>2021-03-30T12:14:42.591Z</time>
      </trkpt>
      <trkpt lat="48.98492" lon="7.63468">
        <ele>480.72119572274</ele>
        <time>2021-03-30T12:14:46.065Z</time>
      </trkpt>
      <trkpt lat="48.98499" lon="7.63439">
        <ele>480.65110847516</ele>
        <time>2021-03-30T12:14:49.546Z</time>
      </trkpt>
      <trkpt lat="48.98512" lon="7.63401">
        <ele>480.46576586767</ele>
        <time>2021-03-30T12:14:53.036Z</time>
      </trkpt>
      <trkpt lat="48.98531" lon="7.63362">
        <ele>480.23945450471</ele>
        <time>2021-03-30T12:14:56.537Z</time>
      </trkpt>
      <trkpt lat="48.98553" lon="7.63323">
        <ele>479.94540865045</ele>
        <time>2021-03-30T12:15:00.049Z</time>
      </trkpt>
      <trkpt lat="48.98575" lon="7.63282">
        <ele>479.70350581546</ele>
        <time>2021-03-30T12:15:03.573Z</time>
      </trkpt>
      <trkpt lat="48.98592" lon="7.63249">
        <ele>479.44593380119</ele>
        <time>2021-03-30T12:15:07.106Z</time>
      </trkpt>
      <trkpt lat="48.98601" lon="7.63226">
        <ele>479.26317209337</ele>
        <time>2021-03-30T12:15:10.645Z</time>
      </trkpt>
      <trkpt lat="48.98604" lon="7.63205">
        <ele>479.15471811789</ele>
        <time>2021-03-30T12:15:14.189Z</time>
      </trkpt>
      <trkpt lat="48.98604" lon="7.63203">
        <ele>479.0901685065</ele>
        <time>2021-03-30T12:15:17.733Z</time>
      </trkpt>
      <trkpt lat="48.98601" lon="7.63145">
        <ele>479.09225901453</ele>
        <time>2021-03-30T12:15:21.290Z</time>
      </trkpt>
      <trkpt lat="48.98598" lon="7.63102">
        <ele>479.19924029229</ele>
        <time>2021-03-30T12:15:24.856Z</time>
      </trkpt>
      <trkpt lat="48.98591" lon="7.63077">
        <ele>479.25472098809</ele>
        <time>2021-03-30T12:15:28.428Z</time>
      </trkpt>
      <trkpt lat="48.98593" lon="7.63051">
        <ele>479.47128155869</ele>
        <time>2021-03-30T12:15:32.006Z</time>
      </trkpt>
      <trkpt lat="48.98603" lon="7.63009">
        <ele>480.00841349219</ele>
        <time>2021-03-30T12:15:35.594Z</time>
      </trkpt>
      <trkpt lat="48.98606" lon="7.62976">
        <ele>480.49193965003</ele>
        <time>2021-03-30T12:15:39.189Z</time>
      </trkpt>
      <trkpt lat="48.98603" lon="7.62909">
        <ele>481.0097871303</ele>
        <time>2021-03-30T12:15:42.799Z</time>
      </trkpt>
      <trkpt lat="48.98592" lon="7.6284">
        <ele>481.55926844156</ele>
        <time>2021-03-30T12:15:46.424Z</time>
      </trkpt>
      <trkpt lat="48.98557" lon="7.62744">
        <ele>482.35100586873</ele>
        <time>2021-03-30T12:15:50.074Z</time>
      </trkpt>
      <trkpt lat="48.98536" lon="7.62692">
        <ele>482.90699303504</ele>
        <time>2021-03-30T12:15:53.737Z</time>
      </trkpt>
      <trkpt lat="48.98529" lon="7.62655">
        <ele>483.50668425107</ele>
        <time>2021-03-30T12:15:57.408Z</time>
      </trkpt>
      <trkpt lat="48.98532" lon="7.62613">
        <ele>484.24636735888</ele>
        <time>2021-03-30T12:16:01.089Z</time>
      </trkpt>
      <trkpt lat="48.9854" lon="7.62546">
        <ele>484.96143864704</ele>
        <time>2021-03-30T12:16:04.785Z</time>
      </trkpt>
      <trkpt lat="48.98553" lon="7.62416">
        <ele>485.64943256236</ele>
        <time>2021-03-30T12:16:08.510Z</time>
      </trkpt>
      <trkpt lat="48.98553" lon="7.62416">
        <ele>487.47500855688</ele>
        <time>2021-03-30T12:16:12.235Z</time>
      </trkpt>
      <trkpt lat="48.98564" lon="7.62299">
        <ele>488.60065431236</ele>
        <time>2021-03-30T12:16:15.986Z</time>
      </trkpt>
      <trkpt lat="48.98572" lon="7.62207">
        <ele>489.74465076788</ele>
        <time>2021-03-30T12:16:19.757Z</time>
      </trkpt>
      <trkpt lat="48.98575" lon="7.62178">
        <ele>490.89661040544</ele>
        <time>2021-03-30T12:16:23.534Z</time>
      </trkpt>
      <trkpt lat="48.98574" lon="7.62154">
        <ele>492.12273965478</ele>
        <time>2021-03-30T12:16:27.317Z</time>
      </trkpt>
      <trkpt lat="48.98576" lon="7.62105">
        <ele>493.55708448052</ele>
        <time>2021-03-30T12:16:31.110Z</time>
      </trkpt>
      <trkpt lat="48.98599" lon="7.62047">
        <ele>495.24979023188</ele>
        <time>2021-03-30T12:16:34.918Z</time>
      </trkpt>
      <trkpt lat="48.98594" lon="7.62002">
        <ele>496.74088009573</ele>
        <time>2021-03-30T12:16:38.736Z</time>
      </trkpt>
      <trkpt lat="48.98582" lon="7.61961">
        <ele>498.22806208502</ele>
        <time>2021-03-30T12:16:42.564Z</time>
      </trkpt>
      <trkpt lat="48.9856" lon="7.61916">
        <ele>499.68994577653</ele>
        <time>2021-03-30T12:16:46.405Z</time>
      </trkpt>
      <trkpt lat="48.98535" lon="7.61865">
        <ele>501.05297462457</ele>
        <time>2021-03-30T12:16:50.259Z</time>
      </trkpt>
      <trkpt lat="48.98523" lon="7.61848">
        <ele>502.37175432055</ele>
        <time>2021-03-30T12:16:54.119Z</time>
      </trkpt>
      <trkpt lat="48.98513" lon="7.61817">
        <ele>503.89691537448</ele>
        <time>2021-03-30T12:16:57.987Z</time>
      </trkpt>
      <trkpt lat="48.9849" lon="7.61771">
        <ele>505.60690505149</ele>
        <time>2021-03-30T12:17:01.867Z</time>
      </trkpt>
      <trkpt lat="48.98461" lon="7.61742">
        <ele>507.39366477055</ele>
        <time>2021-03-30T12:17:05.759Z</time>
      </trkpt>
      <trkpt lat="48.98428" lon="7.61718">
        <ele>509.33492079455</ele>
        <time>2021-03-30T12:17:09.663Z</time>
      </trkpt>
      <trkpt lat="48.98402" lon="7.61701">
        <ele>511.00966475831</ele>
        <time>2021-03-30T12:17:13.576Z</time>
      </trkpt>
      <trkpt lat="48.98373" lon="7.61678">
        <ele>512.65315862001</ele>
        <time>2021-03-30T12:17:17.500Z</time>
      </trkpt>
      <trkpt lat="48.98348" lon="7.61658">
        <ele>514.40730735355</ele>
        <time>2021-03-30T12:17:21.434Z</time>
      </trkpt>
      <trkpt lat="48.98323" lon="7.61635">
        <ele>516.24853370898</ele>
        <time>2021-03-30T12:17:25.377Z</time>
      </trkpt>
      <trkpt lat="48.9828" lon="7.61593">
        <ele>518.14896427298</ele>
        <time>2021-03-30T12:17:29.338Z</time>
      </trkpt>
      <trkpt lat="48.9825" lon="7.61557">
        <ele>520.10302312849</ele>
        <time>2021-03-30T12:17:33.311Z</time>
      </trkpt>
      <trkpt lat="48.9824" lon="7.61546">
        <ele>522.05171560751</ele>
        <time>2021-03-30T12:17:37.289Z</time>
      </trkpt>
      <trkpt lat="48.98222" lon="7.61519">
        <ele>524.15984586528</ele>
        <time>2021-03-30T12:17:41.275Z</time>
      </trkpt>
      <trkpt lat="48.98207" lon="7.6149">
        <ele>526.30066868616</ele>
        <time>2021-03-30T12:17:45.269Z</time>
      </trkpt>
      <trkpt lat="48.98196" lon="7.61464">
        <ele>528.49970491607</ele>
        <time>2021-03-30T12:17:49.270Z</time>
      </trkpt>
      <trkpt lat="48.98181" lon="7.61415">
        <ele>530.80775406871</ele>
        <time>2021-03-30T12:17:53.283Z</time>
      </trkpt>
      <trkpt lat="48.98173" lon="7.61503">
        <ele>533.01938897743</ele>
        <time>2021-03-30T12:17:57.315Z</time>
      </trkpt>
      <trkpt lat="48.98158" lon="7.61551">
        <ele>535.21876998466</ele>
        <time>2021-03-30T12:18:01.359Z</time>
      </trkpt>
      <trkpt lat="48.98149" lon="7.61548">
        <ele>537.77456904876</ele>
        <time>2021-03-30T12:18:05.406Z</time>
      </trkpt>
      <trkpt lat="48.98139" lon="7.61545">
        <ele>540.46861539274</ele>
        <time>2021-03-30T12:18:09.456Z</time>
      </trkpt>
      <trkpt lat="48.9813" lon="7.61542">
        <ele>543.21618895596</ele>
        <time>2021-03-30T12:18:13.509Z</time>
      </trkpt>
      <trkpt lat="48.98121" lon="7.61538">
        <ele>546.05407425186</ele>
        <time>2021-03-30T12:18:17.565Z</time>
      </trkpt>
      <trkpt lat="48.98106" lon="7.61538">
        <ele>549.07346004</ele>
        <time>2021-03-30T12:18:21.626Z</time>
      </trkpt>
      <trkpt lat="48.98096" lon="7.61545">
        <ele>552.02496504448</ele>
        <time>2021-03-30T12:18:25.691Z</time>
      </trkpt>
      <trkpt lat="48.9809" lon="7.61548">
        <ele>554.91062799353</ele>
        <time>2021-03-30T12:18:29.758Z</time>
      </trkpt>
      <trkpt lat="48.98089" lon="7.61514">
        <ele>557.79202326876</ele>
        <time>2021-03-30T12:18:33.833Z</time>
      </trkpt>
      <trkpt lat="48.98076" lon="7.6154">
        <ele>560.7411921813</ele>
        <time>2021-03-30T12:18:37.915Z</time>
      </trkpt>
      <trkpt lat="48.98074" lon="7.6152">
        <ele>563.5539480129</ele>
        <time>2021-03-30T12:18:42.001Z</time>
      </trkpt>
      <trkpt lat="48.98059" lon="7.61526">
        <ele>566.48493090453</ele>
        <time>2021-03-30T12:18:46.092Z</time>
      </trkpt>
      <trkpt lat="48.98055" lon="7.61504">
        <ele>569.21595085573</ele>
        <time>2021-03-30T12:18:50.188Z</time>
      </trkpt>
      <trkpt lat="48.98041" lon="7.61509">
        <ele>571.94867035302</ele>
        <time>2021-03-30T12:18:54.289Z</time>
      </trkpt>
      <trkpt lat="48.98037" lon="7.61492">
        <ele>574.47000603662</ele>
        <time>2021-03-30T12:18:58.394Z</time>
      </trkpt>
      <trkpt lat="48.98029" lon="7.61492">
        <ele>576.85683318016</ele>
        <time>2021-03-30T12:19:02.501Z</time>
      </trkpt>
      <trkpt lat="48.9802" lon="7.61508">
        <ele>579.08786708748</ele>
        <time>2021-03-30T12:19:06.613Z</time>
      </trkpt>
      <trkpt lat="48.98014" lon="7.61489">
        <ele>581.23169221813</ele>
        <time>2021-03-30T12:19:10.730Z</time>
      </trkpt>
      <trkpt lat="48.98009" lon="7.61473">
        <ele>583.1449869517</ele>
        <time>2021-03-30T12:19:14.851Z</time>
      </trkpt>
      <trkpt lat="48.97995" lon="7.61473">
        <ele>584.84838036394</ele>
        <time>2021-03-30T12:19:18.976Z</time>
      </trkpt>
      <trkpt lat="48.97972" lon="7.61477">
        <ele>586.37158790404</ele>
        <time>2021-03-30T12:19:23.109Z</time>
      </trkpt>
      <trkpt lat="48.97956" lon="7.6147">
        <ele>587.72907127555</ele>
        <time>2021-03-30T12:19:27.248Z</time>
      </trkpt>
      <trkpt lat="48.97942" lon="7.61474">
        <ele>588.92648905843</ele>
        <time>2021-03-30T12:19:31.392Z</time>
      </trkpt>
      <trkpt lat="48.97937" lon="7.61477">
        <ele>589.89380339871</ele>
        <time>2021-03-30T12:19:35.537Z</time>
      </trkpt>
      <trkpt lat="48.97936" lon="7.61506">
        <ele>590.58869369109</ele>
        <time>2021-03-30T12:19:39.689Z</time>
      </trkpt>
      <trkpt lat="48.97937" lon="7.6152">
        <ele>591.10654092052</ele>
        <time>2021-03-30T12:19:43.844Z</time>
      </trkpt>
      <trkpt lat="48.97936" lon="7.61535">
        <ele>591.39549639433</ele>
        <time>2021-03-30T12:19:48.002Z</time>
      </trkpt>
      <trkpt lat="48.97929" lon="7.61546">
        <ele>591.44522939251</ele>
        <time>2021-03-30T12:19:52.164Z</time>
      </trkpt>
      <trkpt lat="48.97915" lon="7.61549">
        <ele>591.24703880065</ele>
        <time>2021-03-30T12:19:56.330Z</time>
      </trkpt>
      <trkpt lat="48.97902" lon="7.61544">
        <ele>590.82647929742</ele>
        <time>2021-03-30T12:20:00.501Z</time>
      </trkpt>
      <trkpt lat="48.97882" lon="7.6151">
        <ele>590.27208231744</ele>
        <time>2021-03-30T12:20:04.682Z</time>
      </trkpt>
      <trkpt lat="48.97862" lon="7.61488">
        <ele>589.43361886192</ele>
        <time>2021-03-30T12:20:08.871Z</time>
      </trkpt>
      <trkpt lat="48.97853" lon="7.61474">
        <ele>588.26949053153</ele>
        <time>2021-03-30T12:20:13.064Z</time>
      </trkpt>
      <trkpt lat="48.97845" lon="7.61447">
        <ele>586.79631645357</ele>
        <time>2021-03-30T12:20:17.264Z</time>
      </trkpt>
      <trkpt lat="48.97824" lon="7.61467">
        <ele>584.98812504847</ele>
        <time>2021-03-30T12:20:21.472Z</time>
      </trkpt>
      <trkpt lat="48.97813" lon="7.61467">
        <ele>582.92581751725</ele>
        <time>2021-03-30T12:20:25.684Z</time>
      </trkpt>
      <trkpt lat="48.97792" lon="7.61485">
        <ele>580.44339974581</ele>
        <time>2021-03-30T12:20:29.904Z</time>
      </trkpt>
      <trkpt lat="48.97778" lon="7.61494">
        <ele>577.74325225583</ele>
        <time>2021-03-30T12:20:34.129Z</time>
      </trkpt>
      <trkpt lat="48.97764" lon="7.61499">
        <ele>574.74088225641</ele>
        <time>2021-03-30T12:20:38.359Z</time>
      </trkpt>
      <trkpt lat="48.97766" lon="7.61515">
        <ele>571.60250691935</ele>
        <time>2021-03-30T12:20:42.592Z</time>
      </trkpt>
      <trkpt lat="48.97753" lon="7.61516">
        <ele>568.10685625412</ele>
        <time>2021-03-30T12:20:46.830Z</time>
      </trkpt>
      <trkpt lat="48.97753" lon="7.61532">
        <ele>564.45788353937</ele>
        <time>2021-03-30T12:20:51.071Z</time>
      </trkpt>
      <trkpt lat="48.97743" lon="7.61533">
        <ele>560.64305366182</ele>
        <time>2021-03-30T12:20:55.316Z</time>
      </trkpt>
      <trkpt lat="48.9774" lon="7.61549">
        <ele>556.5803507519</ele>
        <time>2021-03-30T12:20:59.564Z</time>
      </trkpt>
      <trkpt lat="48.9773" lon="7.61546">
        <ele>552.50535192567</ele>
        <time>2021-03-30T12:21:03.816Z</time>
      </trkpt>
      <trkpt lat="48.97725" lon="7.61562">
        <ele>548.15208117561</ele>
        <time>2021-03-30T12:21:08.071Z</time>
      </trkpt>
      <trkpt lat="48.977" lon="7.61562">
        <ele>543.55262497407</ele>
        <time>2021-03-30T12:21:12.335Z</time>
      </trkpt>
      <trkpt lat="48.97701" lon="7.61588">
        <ele>539.04179517701</ele>
        <time>2021-03-30T12:21:16.604Z</time>
      </trkpt>
      <trkpt lat="48.9768" lon="7.61585">
        <ele>534.49345806403</ele>
        <time>2021-03-30T12:21:20.881Z</time>
      </trkpt>
      <trkpt lat="48.97664" lon="7.61608">
        <ele>529.84977965448</ele>
        <time>2021-03-30T12:21:25.165Z</time>
      </trkpt>
      <trkpt lat="48.9765" lon="7.61607">
        <ele>525.53883991324</ele>
        <time>2021-03-30T12:21:29.453Z</time>
      </trkpt>
      <trkpt lat="48.97617" lon="7.61607">
        <ele>520.91593006905</ele>
        <time>2021-03-30T12:21:33.753Z</time>
      </trkpt>
      <trkpt lat="48.97573" lon="7.61648">
        <ele>516.37913477711</ele>
        <time>2021-03-30T12:21:38.070Z</time>
      </trkpt>
      <trkpt lat="48.97554" lon="7.61669">
        <ele>512.3012491603</ele>
        <time>2021-03-30T12:21:42.395Z</time>
      </trkpt>
      <trkpt lat="48.97549" lon="7.61684">
        <ele>508.3749041261</ele>
        <time>2021-03-30T12:21:46.723Z</time>
      </trkpt>
      <trkpt lat="48.97545" lon="7.61698">
        <ele>504.55156141664</ele>
        <time>2021-03-30T12:21:51.055Z</time>
      </trkpt>
      <trkpt lat="48.97545" lon="7.61702">
        <ele>500.80031978635</ele>
        <time>2021-03-30T12:21:55.388Z</time>
      </trkpt>
      <trkpt lat="48.97551" lon="7.61736">
        <ele>497.16990318735</ele>
        <time>2021-03-30T12:21:59.728Z</time>
      </trkpt>
      <trkpt lat="48.97596" lon="7.61725">
        <ele>493.32724805248</ele>
        <time>2021-03-30T12:22:04.083Z</time>
      </trkpt>
      <trkpt lat="48.97576" lon="7.6175">
        <ele>489.82382339253</ele>
        <time>2021-03-30T12:22:08.447Z</time>
      </trkpt>
      <trkpt lat="48.97546" lon="7.61786">
        <ele>486.2285424155</ele>
        <time>2021-03-30T12:22:12.824Z</time>
      </trkpt>
      <trkpt lat="48.97564" lon="7.61796">
        <ele>482.59548131631</ele>
        <time>2021-03-30T12:22:17.207Z</time>
      </trkpt>
      <trkpt lat="48.97533" lon="7.6185">
        <ele>478.51553607506</ele>
        <time>2021-03-30T12:22:21.606Z</time>
      </trkpt>
      <trkpt lat="48.97533" lon="7.6185">
        <ele>475.19686724956</ele>
        <time>2021-03-30T12:22:26.005Z</time>
      </trkpt>
      <trkpt lat="48.97528" lon="7.6186">
        <ele>471.7994956781</ele>
        <time>2021-03-30T12:22:30.407Z</time>
      </trkpt>
      <trkpt lat="48.97528" lon="7.61863">
        <ele>468.49667235905</ele>
        <time>2021-03-30T12:22:34.810Z</time>
      </trkpt>
      <trkpt lat="48.97529" lon="7.61876">
        <ele>465.11321378012</ele>
        <time>2021-03-30T12:22:39.216Z</time>
      </trkpt>
      <trkpt lat="48.97535" lon="7.61882">
        <ele>461.78564865701</ele>
        <time>2021-03-30T12:22:43.624Z</time>
      </trkpt>
      <trkpt lat="48.97522" lon="7.61905">
        <ele>458.37273042972</ele>
        <time>2021-03-30T12:22:48.039Z</time>
      </trkpt>
      <trkpt lat="48.97513" lon="7.6192">
        <ele>454.95446709879</ele>
        <time>2021-03-30T12:22:52.458Z</time>
      </trkpt>
      <trkpt lat="48.97507" lon="7.61943">
        <ele>451.39603483775</ele>
        <time>2021-03-30T12:22:56.883Z</time>
      </trkpt>
      <trkpt lat="48.975" lon="7.6198">
        <ele>447.58648701556</ele>
        <time>2021-03-30T12:23:01.316Z</time>
      </trkpt>
      <trkpt lat="48.97489" lon="7.62016">
        <ele>443.92581282345</ele>
        <time>2021-03-30T12:23:05.758Z</time>
      </trkpt>
      <trkpt lat="48.97489" lon="7.62016">
        <ele>440.65432559039</ele>
        <time>2021-03-30T12:23:10.200Z</time>
      </trkpt>
      <trkpt lat="48.97483" lon="7.62034">
        <ele>437.18618555575</ele>
        <time>2021-03-30T12:23:14.646Z</time>
      </trkpt>
      <trkpt lat="48.97479" lon="7.62048">
        <ele>433.69769038667</ele>
        <time>2021-03-30T12:23:19.095Z</time>
      </trkpt>
      <trkpt lat="48.97459" lon="7.62064">
        <ele>429.8135380125</ele>
        <time>2021-03-30T12:23:23.552Z</time>
      </trkpt>
      <trkpt lat="48.9749" lon="7.62076">
        <ele>426.82841014328</ele>
        <time>2021-03-30T12:23:28.020Z</time>
      </trkpt>
      <trkpt lat="48.97503" lon="7.62091">
        <ele>423.46767757169</ele>
        <time>2021-03-30T12:23:32.493Z</time>
      </trkpt>
      <trkpt lat="48.97476" lon="7.62093">
        <ele>419.4722303827</ele>
        <time>2021-03-30T12:23:36.976Z</time>
      </trkpt>
      <trkpt lat="48.97457" lon="7.62105">
        <ele>415.503295473</ele>
        <time>2021-03-30T12:23:41.465Z</time>
      </trkpt>
      <trkpt lat="48.97437" lon="7.62124">
        <ele>411.47897482741</ele>
        <time>2021-03-30T12:23:45.962Z</time>
      </trkpt>
      <trkpt lat="48.97429" lon="7.62134">
        <ele>407.52356587647</ele>
        <time>2021-03-30T12:23:50.463Z</time>
      </trkpt>
      <trkpt lat="48.97415" lon="7.62159">
        <ele>403.41264799252</ele>
        <time>2021-03-30T12:23:54.971Z</time>
      </trkpt>
      <trkpt lat="48.97399" lon="7.62197">
        <ele>399.01983397008</ele>
        <time>2021-03-30T12:23:59.489Z</time>
      </trkpt>
      <trkpt lat="48.97365" lon="7.62291">
        <ele>394.85699816113</ele>
        <time>2021-03-30T12:24:04.030Z</time>
      </trkpt>
      <trkpt lat="48.97355" lon="7.62323">
        <ele>390.64280227434</ele>
        <time>2021-03-30T12:24:08.579Z</time>
      </trkpt>
      <trkpt lat="48.97341" lon="7.62355">
        <ele>386.45218013188</ele>
        <time>2021-03-30T12:24:13.136Z</time>
      </trkpt>
      <trkpt lat="48.97322" lon="7.62387">
        <ele>382.21097981978</ele>
        <time>2021-03-30T12:24:17.703Z</time>
      </trkpt>
      <trkpt lat="48.97301" lon="7.62414">
        <ele>377.83209397574</ele>
        <time>2021-03-30T12:24:22.279Z</time>
      </trkpt>
      <trkpt lat="48.97285" lon="7.62431">
        <ele>373.38461930758</ele>
        <time>2021-03-30T12:24:26.862Z</time>
      </trkpt>
      <trkpt lat="48.9727" lon="7.62445">
        <ele>368.92016505</ele>
        <time>2021-03-30T12:24:31.451Z</time>
      </trkpt>
      <trkpt lat="48.97257" lon="7.62458">
        <ele>364.48984737867</ele>
        <time>2021-03-30T12:24:36.045Z</time>
      </trkpt>
      <trkpt lat="48.97241" lon="7.62468">
        <ele>359.89071862207</ele>
        <time>2021-03-30T12:24:40.644Z</time>
      </trkpt>
      <trkpt lat="48.97217" lon="7.62461">
        <ele>354.78960921248</ele>
        <time>2021-03-30T12:24:45.252Z</time>
      </trkpt>
      <trkpt lat="48.97186" lon="7.62458">
        <ele>349.54089586814</ele>
        <time>2021-03-30T12:24:49.870Z</time>
      </trkpt>
      <trkpt lat="48.97152" lon="7.62462">
        <ele>344.14349995773</ele>
        <time>2021-03-30T12:24:54.499Z</time>
      </trkpt>
      <trkpt lat="48.97121" lon="7.62471">
        <ele>338.80596222096</ele>
        <time>2021-03-30T12:24:59.139Z</time>
      </trkpt>
      <trkpt lat="48.97092" lon="7.62481">
        <ele>333.63856823928</ele>
        <time>2021-03-30T12:25:03.789Z</time>
      </trkpt>
      <trkpt lat="48.97092" lon="7.62481">
        <ele>323.68538649315</ele>
        <time>2021-03-30T12:25:08.439Z</time>
      </trkpt>
      <trkpt lat="48.97068" lon="7.62488">
        <ele>318.24106911017</ele>
        <time>2021-03-30T12:25:13.097Z</time>
      </trkpt>
      <trkpt lat="48.97025" lon="7.62491">
        <ele>312.27820366759</ele>
        <time>2021-03-30T12:25:17.769Z</time>
      </trkpt>
      <trkpt lat="48.96992" lon="7.62486">
        <ele>306.84387175265</ele>
        <time>2021-03-30T12:25:22.453Z</time>
      </trkpt>
      <trkpt lat="48.96962" lon="7.62476">
        <ele>301.70976436124</ele>
        <time>2021-03-30T12:25:27.147Z</time>
      </trkpt>
      <trkpt lat="48.96962" lon="7.62476">
        <ele>296.76000820282</ele>
        <time>2021-03-30T12:25:31.841Z</time>
      </trkpt>
      <trkpt lat="48.96912" lon="7.62448">
        <ele>291.50184595823</ele>
        <time>2021-03-30T12:25:36.552Z</time>
      </trkpt>
      <trkpt lat="48.96879" lon="7.62424">
        <ele>286.39291882761</ele>
        <time>2021-03-30T12:25:41.276Z</time>
      </trkpt>
      <trkpt lat="48.96858" lon="7.62415">
        <ele>281.46116067017</ele>
        <time>2021-03-30T12:25:46.007Z</time>
      </trkpt>
      <trkpt lat="48.96841" lon="7.62409">
        <ele>276.56181035391</ele>
        <time>2021-03-30T12:25:50.744Z</time>
      </trkpt>
      <trkpt lat="48.96822" lon="7.62398">
        <ele>271.63885297049</ele>
        <time>2021-03-30T12:25:55.488Z</time>
      </trkpt>
      <trkpt lat="48.96796" lon="7.62388">
        <ele>266.63535519098</ele>
        <time>2021-03-30T12:26:00.241Z</time>
      </trkpt>
      <trkpt lat="48.96751" lon="7.62383">
        <ele>261.58723422427</ele>
        <time>2021-03-30T12:26:05.009Z</time>
      </trkpt>
      <trkpt lat="48.96704" lon="7.62377">
        <ele>256.67141210519</ele>
        <time>2021-03-30T12:26:09.792Z</time>
      </trkpt>
      <trkpt lat="48.96648" lon="7.62363">
        <ele>251.84995153188</ele>
        <time>2021-03-30T12:26:14.594Z</time>
      </trkpt>
      <trkpt lat="48.96591" lon="7.6234">
        <ele>246.78413414459</ele>
        <time>2021-03-30T12:26:19.416Z</time>
      </trkpt>
      <trkpt lat="48.9653" lon="7.62312">
        <ele>242.06730497519</ele>
        <time>2021-03-30T12:26:24.259Z</time>
      </trkpt>
      <trkpt lat="48.96508" lon="7.62303">
        <ele>237.82818391196</ele>
        <time>2021-03-30T12:26:29.110Z</time>
      </trkpt>
      <trkpt lat="48.96471" lon="7.62305">
        <ele>233.8180290771</ele>
        <time>2021-03-30T12:26:33.973Z</time>
      </trkpt>
      <trkpt lat="48.96444" lon="7.62302">
        <ele>229.86674056048</ele>
        <time>2021-03-30T12:26:38.845Z</time>
      </trkpt>
      <trkpt lat="48.96418" lon="7.62292">
        <ele>226.02745649638</ele>
        <time>2021-03-30T12:26:43.726Z</time>
      </trkpt>
      <trkpt lat="48.96391" lon="7.62289">
        <ele>222.35521581165</ele>
        <time>2021-03-30T12:26:48.616Z</time>
      </trkpt>
      <trkpt lat="48.96372" lon="7.62295">
        <ele>218.96269310732</ele>
        <time>2021-03-30T12:26:53.513Z</time>
      </trkpt>
      <trkpt lat="48.96354" lon="7.62318">
        <ele>215.93708426477</ele>
        <time>2021-03-30T12:26:58.417Z</time>
      </trkpt>
      <trkpt lat="48.96314" lon="7.6239">
        <ele>213.11796441844</ele>
        <time>2021-03-30T12:27:03.342Z</time>
      </trkpt>
      <trkpt lat="48.96304" lon="7.62408">
        <ele>210.61885435518</ele>
        <time>2021-03-30T12:27:08.272Z</time>
      </trkpt>
      <trkpt lat="48.96278" lon="7.62439">
        <ele>208.28820446021</ele>
        <time>2021-03-30T12:27:13.213Z</time>
      </trkpt>
      <trkpt lat="48.9626" lon="7.62462">
        <ele>206.11929631121</ele>
        <time>2021-03-30T12:27:18.162Z</time>
      </trkpt>
      <trkpt lat="48.96235" lon="7.62489">
        <ele>204.12079525299</ele>
        <time>2021-03-30T12:27:23.121Z</time>
      </trkpt>
      <trkpt lat="48.96221" lon="7.62503">
        <ele>202.3291021452</ele>
        <time>2021-03-30T12:27:28.086Z</time>
      </trkpt>
      <trkpt lat="48.96186" lon="7.62531">
        <ele>200.61084359792</ele>
        <time>2021-03-30T12:27:33.064Z</time>
      </trkpt>
      <trkpt lat="48.96163" lon="7.62549">
        <ele>199.31027141606</ele>
        <time>2021-03-30T12:27:38.051Z</time>
      </trkpt>
      <trkpt lat="48.96141" lon="7.62567">
        <ele>198.17386852817</ele>
        <time>2021-03-30T12:27:43.046Z</time>
      </trkpt>
      <trkpt lat="48.96113" lon="7.62589">
        <ele>197.26151650112</ele>
        <time>2021-03-30T12:27:48.052Z</time>
      </trkpt>
      <trkpt lat="48.96103" lon="7.62601">
        <ele>196.74826399042</ele>
        <time>2021-03-30T12:27:53.062Z</time>
      </trkpt>
      <trkpt lat="48.96093" lon="7.62614">
        <ele>196.52499997535</ele>
        <time>2021-03-30T12:27:58.076Z</time>
      </trkpt>
      <trkpt lat="48.96092" lon="7.62645">
        <ele>196.68543421553</ele>
        <time>2021-03-30T12:28:03.097Z</time>
      </trkpt>
      <trkpt lat="48.96078" lon="7.62645">
        <ele>196.87331175991</ele>
        <time>2021-03-30T12:28:08.123Z</time>
      </trkpt>
      <trkpt lat="48.96069" lon="7.62649">
        <ele>197.3753444882</ele>
        <time>2021-03-30T12:28:13.152Z</time>
      </trkpt>
      <trkpt lat="48.96062" lon="7.62658">
        <ele>198.17382181421</ele>
        <time>2021-03-30T12:28:18.184Z</time>
      </trkpt>
      <trkpt lat="48.96058" lon="7.62685">
        <ele>199.23890213769</ele>
        <time>2021-03-30T12:28:23.222Z</time>
      </trkpt>
      <trkpt lat="48.96054" lon="7.62697">
        <ele>200.53453492403</ele>
        <time>2021-03-30T12:28:28.263Z</time>
      </trkpt>
      <trkpt lat="48.9605" lon="7.62709">
        <ele>202.06429959711</ele>
        <time>2021-03-30T12:28:33.307Z</time>
      </trkpt>
      <trkpt lat="48.96043" lon="7.62722">
        <ele>203.72995447435</ele>
        <time>2021-03-30T12:28:38.355Z</time>
      </trkpt>
      <trkpt lat="48.9603" lon="7.62744">
        <ele>205.56391600144</ele>
        <time>2021-03-30T12:28:43.409Z</time>
      </trkpt>
      <trkpt lat="48.96011" lon="7.62761">
        <ele>207.31790049538</ele>
        <time>2021-03-30T12:28:48.470Z</time>
      </trkpt>
      <trkpt lat="48.95987" lon="7.62786">
        <ele>209.38840112647</ele>
        <time>2021-03-30T12:28:53.541Z</time>
      </trkpt>
      <trkpt lat="48.95967" lon="7.62805">
        <ele>211.58397136632</ele>
        <time>2021-03-30T12:28:58.620Z</time>
      </trkpt>
      <trkpt lat="48.95963" lon="7.62828">
        <ele>214.10158091491</ele>
        <time>2021-03-30T12:29:03.704Z</time>
      </trkpt>
      <trkpt lat="48.95961" lon="7.6284">
        <ele>216.40276930307</ele>
        <time>2021-03-30T12:29:08.791Z</time>
      </trkpt>
      <trkpt lat="48.95953" lon="7.6285">
        <ele>218.5826961313</ele>
        <time>2021-03-30T12:29:13.882Z</time>
      </trkpt>
      <trkpt lat="48.95936" lon="7.62875">
        <ele>220.84772824877</ele>
        <time>2021-03-30T12:29:18.981Z</time>
      </trkpt>
      <trkpt lat="48.95917" lon="7.62899">
        <ele>222.98811724924</ele>
        <time>2021-03-30T12:29:24.088Z</time>
      </trkpt>
      <trkpt lat="48.95902" lon="7.62914">
        <ele>224.94642393808</ele>
        <time>2021-03-30T12:29:29.201Z</time>
      </trkpt>
      <trkpt lat="48.95892" lon="7.62934">
        <ele>226.90838580618</ele>
        <time>2021-03-30T12:29:34.319Z</time>
      </trkpt>
      <trkpt lat="48.95877" lon="7.62996">
        <ele>229.05315659778</ele>
        <time>2021-03-30T12:29:39.452Z</time>
      </trkpt>
      <trkpt lat="48.95873" lon="7.63027">
        <ele>230.68023828352</ele>
        <time>2021-03-30T12:29:44.592Z</time>
      </trkpt>
      <trkpt lat="48.95866" lon="7.63052">
        <ele>231.94534269546</ele>
        <time>2021-03-30T12:29:49.737Z</time>
      </trkpt>
      <trkpt lat="48.95859" lon="7.63085">
        <ele>233.18944413095</ele>
        <time>2021-03-30T12:29:54.890Z</time>
      </trkpt>
      <trkpt lat="48.95852" lon="7.6312">
        <ele>234.11938298592</ele>
        <time>2021-03-30T12:30:00.051Z</time>
      </trkpt>
      <trkpt lat="48.95849" lon="7.63161">
        <ele>234.81128954187</ele>
        <time>2021-03-30T12:30:05.221Z</time>
      </trkpt>
      <trkpt lat="48.95844" lon="7.63205">
        <ele>235.1801397711</ele>
        <time>2021-03-30T12:30:10.401Z</time>
      </trkpt>
      <trkpt lat="48.95843" lon="7.63242">
        <ele>235.49173770015</ele>
        <time>2021-03-30T12:30:15.589Z</time>
      </trkpt>
      <trkpt lat="48.95835" lon="7.6326">
        <ele>235.19408443458</ele>
        <time>2021-03-30T12:30:20.782Z</time>
      </trkpt>
      <trkpt lat="48.95823" lon="7.63279">
        <ele>234.5284065221</ele>
        <time>2021-03-30T12:30:25.981Z</time>
      </trkpt>
      <trkpt lat="48.95797" lon="7.63301">
        <ele>233.41607588964</ele>
        <time>2021-03-30T12:30:31.190Z</time>
      </trkpt>
      <trkpt lat="48.95779" lon="7.63312">
        <ele>232.14812499342</ele>
        <time>2021-03-30T12:30:36.405Z</time>
      </trkpt>
      <trkpt lat="48.95756" lon="7.63326">
        <ele>230.71826716037</ele>
        <time>2021-03-30T12:30:41.628Z</time>
      </trkpt>
      <trkpt lat="48.95662" lon="7.63431">
        <ele>228.64540612515</ele>
        <time>2021-03-30T12:30:46.890Z</time>
      </trkpt>
      <trkpt lat="48.95569" lon="7.63528">
        <ele>226.72562393962</ele>
        <time>2021-03-30T12:30:52.190Z</time>
      </trkpt>
      <trkpt lat="48.95556" lon="7.63509">
        <ele>224.79619983581</ele>
        <time>2021-03-30T12:30:57.496Z</time>
      </trkpt>
      <trkpt lat="48.95529" lon="7.63498">
        <ele>222.7467402077</ele>
        <time>2021-03-30T12:31:02.811Z</time>
      </trkpt>
      <trkpt lat="48.95502" lon="7.63491">
        <ele>220.72103217661</ele>
        <time>2021-03-30T12:31:08.135Z</time>
      </trkpt>
      <trkpt lat="48.95473" lon="7.63498">
        <ele>218.77221222215</ele>
        <time>2021-03-30T12:31:13.469Z</time>
      </trkpt>
      <trkpt lat="48.9544" lon="7.63504">
        <ele>216.65193448578</ele>
        <time>2021-03-30T12:31:18.814Z</time>
      </trkpt>
      <trkpt lat="48.95417" lon="7.63519">
        <ele>214.66747077418</ele>
        <time>2021-03-30T12:31:24.168Z</time>
      </trkpt>
      <trkpt lat="48.95402" lon="7.63534">
        <ele>212.69151330444</ele>
        <time>2021-03-30T12:31:29.528Z</time>
      </trkpt>
      <trkpt lat="48.95384" lon="7.63548">
        <ele>210.60329317841</ele>
        <time>2021-03-30T12:31:34.894Z</time>
      </trkpt>
      <trkpt lat="48.95352" lon="7.63584">
        <ele>208.39667526722</ele>
        <time>2021-03-30T12:31:40.274Z</time>
      </trkpt>
      <trkpt lat="48.95334" lon="7.63608">
        <ele>206.2523242341</ele>
        <time>2021-03-30T12:31:45.662Z</time>
      </trkpt>
      <trkpt lat="48.95313" lon="7.63622">
        <ele>204.0848712307</ele>
        <time>2021-03-30T12:31:51.057Z</time>
      </trkpt>
      <trkpt lat="48.95307" lon="7.63656">
        <ele>202.32081287547</ele>
        <time>2021-03-30T12:31:56.460Z</time>
      </trkpt>
      <trkpt lat="48.95303" lon="7.63688">
        <ele>200.54390614895</ele>
        <time>2021-03-30T12:32:01.870Z</time>
      </trkpt>
      <trkpt lat="48.95297" lon="7.63732">
        <ele>199.00701046369</ele>
        <time>2021-03-30T12:32:07.290Z</time>
      </trkpt>
      <trkpt lat="48.95285" lon="7.63788">
        <ele>197.80155227318</ele>
        <time>2021-03-30T12:32:12.723Z</time>
      </trkpt>
      <trkpt lat="48.95239" lon="7.63901">
        <ele>196.76915120033</ele>
        <time>2021-03-30T12:32:18.185Z</time>
      </trkpt>
      <trkpt lat="48.9522" lon="7.63953">
        <ele>195.48150374679</ele>
        <time>2021-03-30T12:32:23.660Z</time>
      </trkpt>
      <trkpt lat="48.95204" lon="7.64023">
        <ele>194.1774450456</ele>
        <time>2021-03-30T12:32:29.152Z</time>
      </trkpt>
      <trkpt lat="48.95191" lon="7.64094">
        <ele>193.13623502336</ele>
        <time>2021-03-30T12:32:34.660Z</time>
      </trkpt>
      <trkpt lat="48.95179" lon="7.6415">
        <ele>191.91226649404</ele>
        <time>2021-03-30T12:32:40.181Z</time>
      </trkpt>
      <trkpt lat="48.95163" lon="7.64194">
        <ele>190.90690447101</ele>
        <time>2021-03-30T12:32:45.713Z</time>
      </trkpt>
    </trkseg>
  </trk>
</gpx>